<?xml version="1.0" encoding="UTF-8" standalone="no" ?>
<gpx xmlns="http://www.topografix.com/GPX/1/1" xmlns:xsi="http://www.w3.org/2001/XMLSchema-instance" xsi:schemaLocation="http://www.topografix.com/GPX/1/1 http://www.topografix.com/GPX/1/1/gpx.xsd" version="1.1" creator="VisuGPX - https://www.visugpx.com">
  <metadata>
    <name>Valmy-Mt Thoux par Rochecardon - 1ere sortie VTT</name>
    <desc><![CDATA[La trace de ma première sortie en VTT.]]></desc>
  </metadata>
  <trk>
    <name><![CDATA[ACTIVE LOG 001 009]]></name>
    <trkseg>
      <trkpt lat="45.77569" lon="4.80186">
        <ele>149.1416015625</ele>
        <time>2012-09-09T06:41:07Z</time>
      </trkpt>
      <trkpt lat="45.77569" lon="4.80186">
        <ele>149.1416015625</ele>
        <time>2012-09-09T06:41:09Z</time>
      </trkpt>
      <trkpt lat="45.77569" lon="4.80186">
        <ele>149.1416015625</ele>
        <time>2012-09-09T06:41:10Z</time>
      </trkpt>
      <trkpt lat="45.77605" lon="4.80204">
        <ele>149.62231445312</ele>
        <time>2012-09-09T06:41:13Z</time>
      </trkpt>
      <trkpt lat="45.77648" lon="4.80243">
        <ele>148.66101074219</ele>
        <time>2012-09-09T06:41:23Z</time>
      </trkpt>
      <trkpt lat="45.77667" lon="4.80261">
        <ele>148.66101074219</ele>
        <time>2012-09-09T06:41:27Z</time>
      </trkpt>
      <trkpt lat="45.7773" lon="4.80326">
        <ele>147.21899414062</ele>
        <time>2012-09-09T06:41:41Z</time>
      </trkpt>
      <trkpt lat="45.77755" lon="4.80338">
        <ele>147.69970703125</ele>
        <time>2012-09-09T06:41:46Z</time>
      </trkpt>
      <trkpt lat="45.7784" lon="4.80264">
        <ele>148.18041992188</ele>
        <time>2012-09-09T06:42:03Z</time>
      </trkpt>
      <trkpt lat="45.7787" lon="4.80256">
        <ele>148.18041992188</ele>
        <time>2012-09-09T06:42:08Z</time>
      </trkpt>
      <trkpt lat="45.77922" lon="4.80298">
        <ele>148.66101074219</ele>
        <time>2012-09-09T06:42:18Z</time>
      </trkpt>
      <trkpt lat="45.77943" lon="4.80355">
        <ele>151.06420898438</ele>
        <time>2012-09-09T06:42:27Z</time>
      </trkpt>
      <trkpt lat="45.77946" lon="4.80362">
        <ele>151.544921875</ele>
        <time>2012-09-09T06:42:38Z</time>
      </trkpt>
      <trkpt lat="45.77958" lon="4.80396">
        <ele>149.62231445312</ele>
        <time>2012-09-09T06:42:53Z</time>
      </trkpt>
      <trkpt lat="45.78014" lon="4.80514">
        <ele>148.66101074219</ele>
        <time>2012-09-09T06:43:10Z</time>
      </trkpt>
      <trkpt lat="45.78087" lon="4.80601">
        <ele>148.66101074219</ele>
        <time>2012-09-09T06:43:26Z</time>
      </trkpt>
      <trkpt lat="45.78147" lon="4.80655">
        <ele>149.1416015625</ele>
        <time>2012-09-09T06:43:39Z</time>
      </trkpt>
      <trkpt lat="45.78225" lon="4.80716">
        <ele>149.62231445312</ele>
        <time>2012-09-09T06:43:53Z</time>
      </trkpt>
      <trkpt lat="45.78243" lon="4.80724">
        <ele>149.62231445312</ele>
        <time>2012-09-09T06:43:56Z</time>
      </trkpt>
      <trkpt lat="45.78261" lon="4.80732">
        <ele>149.62231445312</ele>
        <time>2012-09-09T06:43:59Z</time>
      </trkpt>
      <trkpt lat="45.78327" lon="4.80768">
        <ele>150.10302734375</ele>
        <time>2012-09-09T06:44:13Z</time>
      </trkpt>
      <trkpt lat="45.78379" lon="4.80798">
        <ele>149.62231445312</ele>
        <time>2012-09-09T06:44:23Z</time>
      </trkpt>
      <trkpt lat="45.78445" lon="4.80831">
        <ele>150.10302734375</ele>
        <time>2012-09-09T06:44:37Z</time>
      </trkpt>
      <trkpt lat="45.78449" lon="4.80833">
        <ele>149.62231445312</ele>
        <time>2012-09-09T06:44:38Z</time>
      </trkpt>
      <trkpt lat="45.78462" lon="4.80839">
        <ele>148.66101074219</ele>
        <time>2012-09-09T06:44:42Z</time>
      </trkpt>
      <trkpt lat="45.78499" lon="4.80819">
        <ele>147.69970703125</ele>
        <time>2012-09-09T06:44:49Z</time>
      </trkpt>
      <trkpt lat="45.7852" lon="4.80803">
        <ele>147.21899414062</ele>
        <time>2012-09-09T06:44:54Z</time>
      </trkpt>
      <trkpt lat="45.78544" lon="4.80784">
        <ele>147.69970703125</ele>
        <time>2012-09-09T06:44:59Z</time>
      </trkpt>
      <trkpt lat="45.78567" lon="4.80779">
        <ele>148.18041992188</ele>
        <time>2012-09-09T06:45:03Z</time>
      </trkpt>
      <trkpt lat="45.78582" lon="4.80786">
        <ele>149.1416015625</ele>
        <time>2012-09-09T06:45:06Z</time>
      </trkpt>
      <trkpt lat="45.78586" lon="4.80787">
        <ele>149.62231445312</ele>
        <time>2012-09-09T06:45:07Z</time>
      </trkpt>
      <trkpt lat="45.78651" lon="4.80816">
        <ele>152.50634765625</ele>
        <time>2012-09-09T06:45:20Z</time>
      </trkpt>
      <trkpt lat="45.78751" lon="4.80861">
        <ele>155.39025878906</ele>
        <time>2012-09-09T06:45:45Z</time>
      </trkpt>
      <trkpt lat="45.78788" lon="4.8088">
        <ele>154.42895507812</ele>
        <time>2012-09-09T06:45:54Z</time>
      </trkpt>
      <trkpt lat="45.7881" lon="4.80863">
        <ele>156.3515625</ele>
        <time>2012-09-09T06:46:00Z</time>
      </trkpt>
      <trkpt lat="45.78816" lon="4.80853">
        <ele>156.3515625</ele>
        <time>2012-09-09T06:46:02Z</time>
      </trkpt>
      <trkpt lat="45.78821" lon="4.80844">
        <ele>157.79357910156</ele>
        <time>2012-09-09T06:46:04Z</time>
      </trkpt>
      <trkpt lat="45.7884" lon="4.8081">
        <ele>157.31286621094</ele>
        <time>2012-09-09T06:46:11Z</time>
      </trkpt>
      <trkpt lat="45.78855" lon="4.80794">
        <ele>157.79357910156</ele>
        <time>2012-09-09T06:46:15Z</time>
      </trkpt>
      <trkpt lat="45.78866" lon="4.80785">
        <ele>160.19689941406</ele>
        <time>2012-09-09T06:46:18Z</time>
      </trkpt>
      <trkpt lat="45.78888" lon="4.80776">
        <ele>161.63891601562</ele>
        <time>2012-09-09T06:46:25Z</time>
      </trkpt>
      <trkpt lat="45.78889" lon="4.80759">
        <ele>161.158203125</ele>
        <time>2012-09-09T06:46:29Z</time>
      </trkpt>
      <trkpt lat="45.78889" lon="4.8073">
        <ele>160.19689941406</ele>
        <time>2012-09-09T06:46:34Z</time>
      </trkpt>
      <trkpt lat="45.78906" lon="4.807">
        <ele>159.71618652344</ele>
        <time>2012-09-09T06:46:42Z</time>
      </trkpt>
      <trkpt lat="45.78926" lon="4.80677">
        <ele>159.71618652344</ele>
        <time>2012-09-09T06:46:51Z</time>
      </trkpt>
      <trkpt lat="45.78931" lon="4.80669">
        <ele>159.23547363281</ele>
        <time>2012-09-09T06:46:53Z</time>
      </trkpt>
      <trkpt lat="45.78954" lon="4.80629">
        <ele>159.71618652344</ele>
        <time>2012-09-09T06:47:00Z</time>
      </trkpt>
      <trkpt lat="45.78989" lon="4.80534">
        <ele>161.63891601562</ele>
        <time>2012-09-09T06:47:15Z</time>
      </trkpt>
      <trkpt lat="45.79004" lon="4.80507">
        <ele>161.63891601562</ele>
        <time>2012-09-09T06:47:20Z</time>
      </trkpt>
      <trkpt lat="45.79024" lon="4.80476">
        <ele>161.158203125</ele>
        <time>2012-09-09T06:47:26Z</time>
      </trkpt>
      <trkpt lat="45.79036" lon="4.80458">
        <ele>161.63891601562</ele>
        <time>2012-09-09T06:47:29Z</time>
      </trkpt>
      <trkpt lat="45.79062" lon="4.80427">
        <ele>163.08081054688</ele>
        <time>2012-09-09T06:47:35Z</time>
      </trkpt>
      <trkpt lat="45.79066" lon="4.80424">
        <ele>162.11950683594</ele>
        <time>2012-09-09T06:47:36Z</time>
      </trkpt>
      <trkpt lat="45.79106" lon="4.8038">
        <ele>164.52270507812</ele>
        <time>2012-09-09T06:47:45Z</time>
      </trkpt>
      <trkpt lat="45.79134" lon="4.80314">
        <ele>165.96472167969</ele>
        <time>2012-09-09T06:47:56Z</time>
      </trkpt>
      <trkpt lat="45.79142" lon="4.80305">
        <ele>166.4453125</ele>
        <time>2012-09-09T06:47:58Z</time>
      </trkpt>
      <trkpt lat="45.79162" lon="4.8029">
        <ele>167.88732910156</ele>
        <time>2012-09-09T06:48:03Z</time>
      </trkpt>
      <trkpt lat="45.79194" lon="4.80278">
        <ele>170.77136230469</ele>
        <time>2012-09-09T06:48:12Z</time>
      </trkpt>
      <trkpt lat="45.79222" lon="4.80264">
        <ele>174.61657714844</ele>
        <time>2012-09-09T06:48:22Z</time>
      </trkpt>
      <trkpt lat="45.79247" lon="4.80238">
        <ele>177.98120117188</ele>
        <time>2012-09-09T06:48:34Z</time>
      </trkpt>
      <trkpt lat="45.7925" lon="4.80208">
        <ele>179.90380859375</ele>
        <time>2012-09-09T06:48:42Z</time>
      </trkpt>
      <trkpt lat="45.79245" lon="4.80161">
        <ele>183.26843261719</ele>
        <time>2012-09-09T06:48:55Z</time>
      </trkpt>
      <trkpt lat="45.79246" lon="4.80135">
        <ele>185.19116210938</ele>
        <time>2012-09-09T06:49:03Z</time>
      </trkpt>
      <trkpt lat="45.79248" lon="4.80087">
        <ele>188.55578613281</ele>
        <time>2012-09-09T06:49:17Z</time>
      </trkpt>
      <trkpt lat="45.79259" lon="4.8002">
        <ele>190.958984375</ele>
        <time>2012-09-09T06:49:35Z</time>
      </trkpt>
      <trkpt lat="45.79281" lon="4.79994">
        <ele>192.40112304688</ele>
        <time>2012-09-09T06:49:44Z</time>
      </trkpt>
      <trkpt lat="45.79288" lon="4.79991">
        <ele>194.32373046875</ele>
        <time>2012-09-09T06:49:47Z</time>
      </trkpt>
      <trkpt lat="45.79318" lon="4.79977">
        <ele>197.20751953125</ele>
        <time>2012-09-09T06:50:01Z</time>
      </trkpt>
      <trkpt lat="45.79338" lon="4.79963">
        <ele>200.572265625</ele>
        <time>2012-09-09T06:50:13Z</time>
      </trkpt>
      <trkpt lat="45.79369" lon="4.79942">
        <ele>203.93688964844</ele>
        <time>2012-09-09T06:50:32Z</time>
      </trkpt>
      <trkpt lat="45.79398" lon="4.7994">
        <ele>205.85949707031</ele>
        <time>2012-09-09T06:50:45Z</time>
      </trkpt>
      <trkpt lat="45.79427" lon="4.79946">
        <ele>209.70483398438</ele>
        <time>2012-09-09T06:50:59Z</time>
      </trkpt>
      <trkpt lat="45.79453" lon="4.79936">
        <ele>212.58862304688</ele>
        <time>2012-09-09T06:51:13Z</time>
      </trkpt>
      <trkpt lat="45.79488" lon="4.79914">
        <ele>214.51123046875</ele>
        <time>2012-09-09T06:51:29Z</time>
      </trkpt>
      <trkpt lat="45.79515" lon="4.79907">
        <ele>215.47265625</ele>
        <time>2012-09-09T06:51:40Z</time>
      </trkpt>
      <trkpt lat="45.7953" lon="4.79907">
        <ele>215.47265625</ele>
        <time>2012-09-09T06:51:44Z</time>
      </trkpt>
      <trkpt lat="45.7954" lon="4.79907">
        <ele>215.47265625</ele>
        <time>2012-09-09T06:51:46Z</time>
      </trkpt>
      <trkpt lat="45.79553" lon="4.79907">
        <ele>215.47265625</ele>
        <time>2012-09-09T06:51:49Z</time>
      </trkpt>
      <trkpt lat="45.79566" lon="4.79909">
        <ele>215.95324707031</ele>
        <time>2012-09-09T06:51:52Z</time>
      </trkpt>
      <trkpt lat="45.79594" lon="4.79914">
        <ele>214.99194335938</ele>
        <time>2012-09-09T06:51:58Z</time>
      </trkpt>
      <trkpt lat="45.79671" lon="4.79892">
        <ele>213.55004882812</ele>
        <time>2012-09-09T06:52:12Z</time>
      </trkpt>
      <trkpt lat="45.79682" lon="4.79886">
        <ele>214.03063964844</ele>
        <time>2012-09-09T06:52:14Z</time>
      </trkpt>
      <trkpt lat="45.79721" lon="4.79864">
        <ele>214.51123046875</ele>
        <time>2012-09-09T06:52:21Z</time>
      </trkpt>
      <trkpt lat="45.79743" lon="4.79854">
        <ele>214.99194335938</ele>
        <time>2012-09-09T06:52:26Z</time>
      </trkpt>
      <trkpt lat="45.79792" lon="4.79849">
        <ele>214.99194335938</ele>
        <time>2012-09-09T06:52:36Z</time>
      </trkpt>
      <trkpt lat="45.79796" lon="4.79849">
        <ele>214.03063964844</ele>
        <time>2012-09-09T06:52:37Z</time>
      </trkpt>
      <trkpt lat="45.79809" lon="4.79848">
        <ele>213.55004882812</ele>
        <time>2012-09-09T06:52:39Z</time>
      </trkpt>
      <trkpt lat="45.79819" lon="4.79848">
        <ele>214.03063964844</ele>
        <time>2012-09-09T06:52:41Z</time>
      </trkpt>
      <trkpt lat="45.7986" lon="4.79854">
        <ele>215.95324707031</ele>
        <time>2012-09-09T06:52:51Z</time>
      </trkpt>
      <trkpt lat="45.79904" lon="4.79835">
        <ele>214.99194335938</ele>
        <time>2012-09-09T06:53:00Z</time>
      </trkpt>
      <trkpt lat="45.79915" lon="4.79827">
        <ele>215.95324707031</ele>
        <time>2012-09-09T06:53:03Z</time>
      </trkpt>
      <trkpt lat="45.79932" lon="4.79812">
        <ele>216.43395996094</ele>
        <time>2012-09-09T06:53:08Z</time>
      </trkpt>
      <trkpt lat="45.79962" lon="4.79798">
        <ele>220.27917480469</ele>
        <time>2012-09-09T06:53:16Z</time>
      </trkpt>
      <trkpt lat="45.79997" lon="4.79799">
        <ele>223.16320800781</ele>
        <time>2012-09-09T06:53:27Z</time>
      </trkpt>
      <trkpt lat="45.80038" lon="4.79799">
        <ele>226.52783203125</ele>
        <time>2012-09-09T06:53:41Z</time>
      </trkpt>
      <trkpt lat="45.80046" lon="4.79798">
        <ele>227.00854492188</ele>
        <time>2012-09-09T06:53:44Z</time>
      </trkpt>
      <trkpt lat="45.80077" lon="4.79796">
        <ele>228.93115234375</ele>
        <time>2012-09-09T06:53:53Z</time>
      </trkpt>
      <trkpt lat="45.80108" lon="4.79786">
        <ele>229.89233398438</ele>
        <time>2012-09-09T06:54:04Z</time>
      </trkpt>
      <trkpt lat="45.8014" lon="4.79728">
        <ele>231.33435058594</ele>
        <time>2012-09-09T06:54:18Z</time>
      </trkpt>
      <trkpt lat="45.80153" lon="4.7969">
        <ele>232.77648925781</ele>
        <time>2012-09-09T06:54:26Z</time>
      </trkpt>
      <trkpt lat="45.80155" lon="4.79669">
        <ele>231.33435058594</ele>
        <time>2012-09-09T06:54:29Z</time>
      </trkpt>
      <trkpt lat="45.80157" lon="4.7965">
        <ele>229.89233398438</ele>
        <time>2012-09-09T06:54:31Z</time>
      </trkpt>
      <trkpt lat="45.8016" lon="4.79616">
        <ele>226.52783203125</ele>
        <time>2012-09-09T06:54:34Z</time>
      </trkpt>
      <trkpt lat="45.80166" lon="4.79513">
        <ele>224.60522460938</ele>
        <time>2012-09-09T06:54:43Z</time>
      </trkpt>
      <trkpt lat="45.80173" lon="4.79447">
        <ele>225.56652832031</ele>
        <time>2012-09-09T06:54:49Z</time>
      </trkpt>
      <trkpt lat="45.80196" lon="4.79375">
        <ele>227.00854492188</ele>
        <time>2012-09-09T06:54:57Z</time>
      </trkpt>
      <trkpt lat="45.80202" lon="4.7932">
        <ele>229.41174316406</ele>
        <time>2012-09-09T06:55:04Z</time>
      </trkpt>
      <trkpt lat="45.80201" lon="4.79284">
        <ele>232.29577636719</ele>
        <time>2012-09-09T06:55:10Z</time>
      </trkpt>
      <trkpt lat="45.802" lon="4.79261">
        <ele>233.73767089844</ele>
        <time>2012-09-09T06:55:15Z</time>
      </trkpt>
      <trkpt lat="45.80194" lon="4.79241">
        <ele>235.66027832031</ele>
        <time>2012-09-09T06:55:20Z</time>
      </trkpt>
      <trkpt lat="45.80169" lon="4.79214">
        <ele>239.50549316406</ele>
        <time>2012-09-09T06:55:30Z</time>
      </trkpt>
      <trkpt lat="45.80162" lon="4.79213">
        <ele>240.46704101562</ele>
        <time>2012-09-09T06:55:33Z</time>
      </trkpt>
      <trkpt lat="45.80159" lon="4.79201">
        <ele>240.46704101562</ele>
        <time>2012-09-09T06:55:38Z</time>
      </trkpt>
      <trkpt lat="45.80159" lon="4.79189">
        <ele>241.90893554688</ele>
        <time>2012-09-09T06:55:42Z</time>
      </trkpt>
      <trkpt lat="45.80163" lon="4.79169">
        <ele>242.3896484375</ele>
        <time>2012-09-09T06:55:47Z</time>
      </trkpt>
      <trkpt lat="45.80168" lon="4.79164">
        <ele>242.87023925781</ele>
        <time>2012-09-09T06:55:50Z</time>
      </trkpt>
      <trkpt lat="45.80173" lon="4.79159">
        <ele>244.31225585938</ele>
        <time>2012-09-09T06:55:54Z</time>
      </trkpt>
      <trkpt lat="45.80195" lon="4.79135">
        <ele>248.15759277344</ele>
        <time>2012-09-09T06:56:08Z</time>
      </trkpt>
      <trkpt lat="45.80197" lon="4.79133">
        <ele>248.15759277344</ele>
        <time>2012-09-09T06:56:09Z</time>
      </trkpt>
      <trkpt lat="45.80203" lon="4.79126">
        <ele>249.11877441406</ele>
        <time>2012-09-09T06:56:14Z</time>
      </trkpt>
      <trkpt lat="45.80206" lon="4.7912">
        <ele>249.59948730469</ele>
        <time>2012-09-09T06:56:18Z</time>
      </trkpt>
      <trkpt lat="45.80216" lon="4.79096">
        <ele>252.96398925781</ele>
        <time>2012-09-09T06:56:32Z</time>
      </trkpt>
      <trkpt lat="45.80216" lon="4.79096">
        <ele>253.44470214844</ele>
        <time>2012-09-09T06:56:45Z</time>
      </trkpt>
      <trkpt lat="45.80216" lon="4.79096">
        <ele>253.92541503906</ele>
        <time>2012-09-09T06:56:46Z</time>
      </trkpt>
      <trkpt lat="45.80216" lon="4.79096">
        <ele>254.88659667969</ele>
        <time>2012-09-09T06:56:59Z</time>
      </trkpt>
      <trkpt lat="45.80224" lon="4.79062">
        <ele>255.84802246094</ele>
        <time>2012-09-09T06:57:06Z</time>
      </trkpt>
      <trkpt lat="45.80223" lon="4.79054">
        <ele>257.2900390625</ele>
        <time>2012-09-09T06:57:10Z</time>
      </trkpt>
      <trkpt lat="45.80221" lon="4.79044">
        <ele>257.77075195312</ele>
        <time>2012-09-09T06:57:15Z</time>
      </trkpt>
      <trkpt lat="45.80217" lon="4.79008">
        <ele>259.693359375</ele>
        <time>2012-09-09T06:57:27Z</time>
      </trkpt>
      <trkpt lat="45.80208" lon="4.78967">
        <ele>262.09655761719</ele>
        <time>2012-09-09T06:57:41Z</time>
      </trkpt>
      <trkpt lat="45.80201" lon="4.78939">
        <ele>265.46130371094</ele>
        <time>2012-09-09T06:57:50Z</time>
      </trkpt>
      <trkpt lat="45.802" lon="4.78934">
        <ele>263.53857421875</ele>
        <time>2012-09-09T06:57:52Z</time>
      </trkpt>
      <trkpt lat="45.80187" lon="4.78893">
        <ele>258.73193359375</ele>
        <time>2012-09-09T06:58:01Z</time>
      </trkpt>
      <trkpt lat="45.80186" lon="4.78887">
        <ele>258.73193359375</ele>
        <time>2012-09-09T06:58:02Z</time>
      </trkpt>
      <trkpt lat="45.80178" lon="4.7886">
        <ele>259.21264648438</ele>
        <time>2012-09-09T06:58:11Z</time>
      </trkpt>
      <trkpt lat="45.80178" lon="4.7886">
        <ele>258.73193359375</ele>
        <time>2012-09-09T06:58:15Z</time>
      </trkpt>
      <trkpt lat="45.80178" lon="4.7886">
        <ele>259.21264648438</ele>
        <time>2012-09-09T06:58:21Z</time>
      </trkpt>
      <trkpt lat="45.80172" lon="4.78835">
        <ele>259.21264648438</ele>
        <time>2012-09-09T06:58:27Z</time>
      </trkpt>
      <trkpt lat="45.8017" lon="4.78827">
        <ele>260.65454101562</ele>
        <time>2012-09-09T06:58:32Z</time>
      </trkpt>
      <trkpt lat="45.80172" lon="4.78816">
        <ele>261.13525390625</ele>
        <time>2012-09-09T06:58:36Z</time>
      </trkpt>
      <trkpt lat="45.80175" lon="4.78796">
        <ele>262.09655761719</ele>
        <time>2012-09-09T06:58:42Z</time>
      </trkpt>
      <trkpt lat="45.8018" lon="4.78784">
        <ele>261.13525390625</ele>
        <time>2012-09-09T06:58:46Z</time>
      </trkpt>
      <trkpt lat="45.80184" lon="4.7877">
        <ele>263.05786132812</ele>
        <time>2012-09-09T06:58:50Z</time>
      </trkpt>
      <trkpt lat="45.80187" lon="4.78764">
        <ele>261.61596679688</ele>
        <time>2012-09-09T06:58:52Z</time>
      </trkpt>
      <trkpt lat="45.80191" lon="4.78755">
        <ele>263.05786132812</ele>
        <time>2012-09-09T06:58:55Z</time>
      </trkpt>
      <trkpt lat="45.80193" lon="4.78749">
        <ele>264.49987792969</ele>
        <time>2012-09-09T06:58:57Z</time>
      </trkpt>
      <trkpt lat="45.80195" lon="4.78743">
        <ele>265.94189453125</ele>
        <time>2012-09-09T06:58:59Z</time>
      </trkpt>
      <trkpt lat="45.80196" lon="4.78741">
        <ele>264.01928710938</ele>
        <time>2012-09-09T06:59:00Z</time>
      </trkpt>
      <trkpt lat="45.80192" lon="4.78717">
        <ele>266.90319824219</ele>
        <time>2012-09-09T06:59:08Z</time>
      </trkpt>
      <trkpt lat="45.80186" lon="4.78703">
        <ele>268.82580566406</ele>
        <time>2012-09-09T06:59:14Z</time>
      </trkpt>
      <trkpt lat="45.80183" lon="4.78695">
        <ele>269.30651855469</ele>
        <time>2012-09-09T06:59:18Z</time>
      </trkpt>
      <trkpt lat="45.80178" lon="4.78684">
        <ele>270.26770019531</ele>
        <time>2012-09-09T06:59:23Z</time>
      </trkpt>
      <trkpt lat="45.80172" lon="4.7867">
        <ele>271.22912597656</ele>
        <time>2012-09-09T06:59:28Z</time>
      </trkpt>
      <trkpt lat="45.80171" lon="4.78665">
        <ele>273.15185546875</ele>
        <time>2012-09-09T06:59:33Z</time>
      </trkpt>
      <trkpt lat="45.80209" lon="4.78665">
        <ele>273.63244628906</ele>
        <time>2012-09-09T06:59:46Z</time>
      </trkpt>
      <trkpt lat="45.80223" lon="4.78665">
        <ele>272.1904296875</ele>
        <time>2012-09-09T06:59:51Z</time>
      </trkpt>
      <trkpt lat="45.80232" lon="4.78665">
        <ele>272.67114257812</ele>
        <time>2012-09-09T06:59:55Z</time>
      </trkpt>
      <trkpt lat="45.80264" lon="4.78665">
        <ele>269.787109375</ele>
        <time>2012-09-09T07:00:04Z</time>
      </trkpt>
      <trkpt lat="45.80287" lon="4.78667">
        <ele>266.90319824219</ele>
        <time>2012-09-09T07:00:11Z</time>
      </trkpt>
      <trkpt lat="45.80306" lon="4.78667">
        <ele>264.01928710938</ele>
        <time>2012-09-09T07:00:19Z</time>
      </trkpt>
      <trkpt lat="45.80308" lon="4.78667">
        <ele>264.01928710938</ele>
        <time>2012-09-09T07:00:20Z</time>
      </trkpt>
      <trkpt lat="45.80318" lon="4.78664">
        <ele>261.13525390625</ele>
        <time>2012-09-09T07:00:23Z</time>
      </trkpt>
      <trkpt lat="45.80325" lon="4.78663">
        <ele>259.693359375</ele>
        <time>2012-09-09T07:00:25Z</time>
      </trkpt>
      <trkpt lat="45.80343" lon="4.78656">
        <ele>256.80932617188</ele>
        <time>2012-09-09T07:00:30Z</time>
      </trkpt>
      <trkpt lat="45.8036" lon="4.78645">
        <ele>253.44470214844</ele>
        <time>2012-09-09T07:00:36Z</time>
      </trkpt>
      <trkpt lat="45.80366" lon="4.7864">
        <ele>253.44470214844</ele>
        <time>2012-09-09T07:00:37Z</time>
      </trkpt>
      <trkpt lat="45.80386" lon="4.78625">
        <ele>251.04138183594</ele>
        <time>2012-09-09T07:00:41Z</time>
      </trkpt>
      <trkpt lat="45.80395" lon="4.78618">
        <ele>249.59948730469</ele>
        <time>2012-09-09T07:00:43Z</time>
      </trkpt>
      <trkpt lat="45.80409" lon="4.78609">
        <ele>246.71545410156</ele>
        <time>2012-09-09T07:00:46Z</time>
      </trkpt>
      <trkpt lat="45.80439" lon="4.78594">
        <ele>248.63818359375</ele>
        <time>2012-09-09T07:00:55Z</time>
      </trkpt>
      <trkpt lat="45.80451" lon="4.78601">
        <ele>246.71545410156</ele>
        <time>2012-09-09T07:00:58Z</time>
      </trkpt>
      <trkpt lat="45.80461" lon="4.78609">
        <ele>248.63818359375</ele>
        <time>2012-09-09T07:01:00Z</time>
      </trkpt>
      <trkpt lat="45.80488" lon="4.78628">
        <ele>247.6767578125</ele>
        <time>2012-09-09T07:01:07Z</time>
      </trkpt>
      <trkpt lat="45.80497" lon="4.78649">
        <ele>249.59948730469</ele>
        <time>2012-09-09T07:01:10Z</time>
      </trkpt>
      <trkpt lat="45.80511" lon="4.78644">
        <ele>252.4833984375</ele>
        <time>2012-09-09T07:01:15Z</time>
      </trkpt>
      <trkpt lat="45.80538" lon="4.78627">
        <ele>254.40600585938</ele>
        <time>2012-09-09T07:01:25Z</time>
      </trkpt>
      <trkpt lat="45.80544" lon="4.78624">
        <ele>253.92541503906</ele>
        <time>2012-09-09T07:01:38Z</time>
      </trkpt>
      <trkpt lat="45.8055" lon="4.78622">
        <ele>253.44470214844</ele>
        <time>2012-09-09T07:01:52Z</time>
      </trkpt>
      <trkpt lat="45.80558" lon="4.78595">
        <ele>253.92541503906</ele>
        <time>2012-09-09T07:02:04Z</time>
      </trkpt>
      <trkpt lat="45.80569" lon="4.78565">
        <ele>251.52209472656</ele>
        <time>2012-09-09T07:02:13Z</time>
      </trkpt>
      <trkpt lat="45.80585" lon="4.78507">
        <ele>251.52209472656</ele>
        <time>2012-09-09T07:02:26Z</time>
      </trkpt>
      <trkpt lat="45.8059" lon="4.78485">
        <ele>253.44470214844</ele>
        <time>2012-09-09T07:02:31Z</time>
      </trkpt>
      <trkpt lat="45.80592" lon="4.78474">
        <ele>251.52209472656</ele>
        <time>2012-09-09T07:02:34Z</time>
      </trkpt>
      <trkpt lat="45.80596" lon="4.78454">
        <ele>252.00280761719</ele>
        <time>2012-09-09T07:02:39Z</time>
      </trkpt>
      <trkpt lat="45.80608" lon="4.78434">
        <ele>253.44470214844</ele>
        <time>2012-09-09T07:02:44Z</time>
      </trkpt>
      <trkpt lat="45.80629" lon="4.78407">
        <ele>252.4833984375</ele>
        <time>2012-09-09T07:02:53Z</time>
      </trkpt>
      <trkpt lat="45.80639" lon="4.78398">
        <ele>252.96398925781</ele>
        <time>2012-09-09T07:02:56Z</time>
      </trkpt>
      <trkpt lat="45.80644" lon="4.78393">
        <ele>253.92541503906</ele>
        <time>2012-09-09T07:02:58Z</time>
      </trkpt>
      <trkpt lat="45.80648" lon="4.78392">
        <ele>255.84802246094</ele>
        <time>2012-09-09T07:03:08Z</time>
      </trkpt>
      <trkpt lat="45.80648" lon="4.78392">
        <ele>254.40600585938</ele>
        <time>2012-09-09T07:03:19Z</time>
      </trkpt>
      <trkpt lat="45.80634" lon="4.78403">
        <ele>253.44470214844</ele>
        <time>2012-09-09T07:03:29Z</time>
      </trkpt>
      <trkpt lat="45.80634" lon="4.78403">
        <ele>253.44470214844</ele>
        <time>2012-09-09T07:03:32Z</time>
      </trkpt>
      <trkpt lat="45.80634" lon="4.78403">
        <ele>253.92541503906</ele>
        <time>2012-09-09T07:03:40Z</time>
      </trkpt>
      <trkpt lat="45.80649" lon="4.78391">
        <ele>254.40600585938</ele>
        <time>2012-09-09T07:03:53Z</time>
      </trkpt>
      <trkpt lat="45.80649" lon="4.78391">
        <ele>255.84802246094</ele>
        <time>2012-09-09T07:03:55Z</time>
      </trkpt>
      <trkpt lat="45.80656" lon="4.78387">
        <ele>256.80932617188</ele>
        <time>2012-09-09T07:04:00Z</time>
      </trkpt>
      <trkpt lat="45.80659" lon="4.78386">
        <ele>258.25134277344</ele>
        <time>2012-09-09T07:04:03Z</time>
      </trkpt>
      <trkpt lat="45.80672" lon="4.7838">
        <ele>258.73193359375</ele>
        <time>2012-09-09T07:04:10Z</time>
      </trkpt>
      <trkpt lat="45.80679" lon="4.78378">
        <ele>259.693359375</ele>
        <time>2012-09-09T07:04:15Z</time>
      </trkpt>
      <trkpt lat="45.80694" lon="4.78374">
        <ele>258.73193359375</ele>
        <time>2012-09-09T07:04:18Z</time>
      </trkpt>
      <trkpt lat="45.807" lon="4.78373">
        <ele>259.21264648438</ele>
        <time>2012-09-09T07:04:20Z</time>
      </trkpt>
      <trkpt lat="45.80712" lon="4.78373">
        <ele>260.17395019531</ele>
        <time>2012-09-09T07:04:25Z</time>
      </trkpt>
      <trkpt lat="45.8072" lon="4.78373">
        <ele>259.693359375</ele>
        <time>2012-09-09T07:04:28Z</time>
      </trkpt>
      <trkpt lat="45.80743" lon="4.78374">
        <ele>259.693359375</ele>
        <time>2012-09-09T07:04:38Z</time>
      </trkpt>
      <trkpt lat="45.8075" lon="4.78372">
        <ele>260.17395019531</ele>
        <time>2012-09-09T07:04:42Z</time>
      </trkpt>
      <trkpt lat="45.8078" lon="4.78369">
        <ele>261.13525390625</ele>
        <time>2012-09-09T07:04:55Z</time>
      </trkpt>
      <trkpt lat="45.80789" lon="4.78367">
        <ele>260.17395019531</ele>
        <time>2012-09-09T07:04:58Z</time>
      </trkpt>
      <trkpt lat="45.80819" lon="4.78361">
        <ele>260.65454101562</ele>
        <time>2012-09-09T07:05:09Z</time>
      </trkpt>
      <trkpt lat="45.80861" lon="4.78362">
        <ele>261.61596679688</ele>
        <time>2012-09-09T07:05:19Z</time>
      </trkpt>
      <trkpt lat="45.80877" lon="4.78362">
        <ele>260.17395019531</ele>
        <time>2012-09-09T07:05:27Z</time>
      </trkpt>
      <trkpt lat="45.80898" lon="4.78349">
        <ele>259.693359375</ele>
        <time>2012-09-09T07:05:38Z</time>
      </trkpt>
      <trkpt lat="45.80913" lon="4.78291">
        <ele>258.73193359375</ele>
        <time>2012-09-09T07:05:49Z</time>
      </trkpt>
      <trkpt lat="45.80919" lon="4.78269">
        <ele>259.21264648438</ele>
        <time>2012-09-09T07:05:54Z</time>
      </trkpt>
      <trkpt lat="45.80936" lon="4.7825">
        <ele>259.693359375</ele>
        <time>2012-09-09T07:06:00Z</time>
      </trkpt>
      <trkpt lat="45.80969" lon="4.78251">
        <ele>260.65454101562</ele>
        <time>2012-09-09T07:06:10Z</time>
      </trkpt>
      <trkpt lat="45.81007" lon="4.78255">
        <ele>261.61596679688</ele>
        <time>2012-09-09T07:06:20Z</time>
      </trkpt>
      <trkpt lat="45.81034" lon="4.78255">
        <ele>262.09655761719</ele>
        <time>2012-09-09T07:06:28Z</time>
      </trkpt>
      <trkpt lat="45.8104" lon="4.78255">
        <ele>262.5771484375</ele>
        <time>2012-09-09T07:06:30Z</time>
      </trkpt>
      <trkpt lat="45.81066" lon="4.78253">
        <ele>263.53857421875</ele>
        <time>2012-09-09T07:06:40Z</time>
      </trkpt>
      <trkpt lat="45.81075" lon="4.78253">
        <ele>263.05786132812</ele>
        <time>2012-09-09T07:06:42Z</time>
      </trkpt>
      <trkpt lat="45.81089" lon="4.78254">
        <ele>264.01928710938</ele>
        <time>2012-09-09T07:06:46Z</time>
      </trkpt>
      <trkpt lat="45.81105" lon="4.78255">
        <ele>264.49987792969</ele>
        <time>2012-09-09T07:06:51Z</time>
      </trkpt>
      <trkpt lat="45.81123" lon="4.78254">
        <ele>264.98059082031</ele>
        <time>2012-09-09T07:06:57Z</time>
      </trkpt>
      <trkpt lat="45.81148" lon="4.78249">
        <ele>266.42248535156</ele>
        <time>2012-09-09T07:07:06Z</time>
      </trkpt>
      <trkpt lat="45.81148" lon="4.78249">
        <ele>265.94189453125</ele>
        <time>2012-09-09T07:08:03Z</time>
      </trkpt>
      <trkpt lat="45.81148" lon="4.78249">
        <ele>266.42248535156</ele>
        <time>2012-09-09T07:08:40Z</time>
      </trkpt>
      <trkpt lat="45.81179" lon="4.78222">
        <ele>266.42248535156</ele>
        <time>2012-09-09T07:08:50Z</time>
      </trkpt>
      <trkpt lat="45.8122" lon="4.78219">
        <ele>267.38391113281</ele>
        <time>2012-09-09T07:09:01Z</time>
      </trkpt>
      <trkpt lat="45.81228" lon="4.7822">
        <ele>266.90319824219</ele>
        <time>2012-09-09T07:09:05Z</time>
      </trkpt>
      <trkpt lat="45.81231" lon="4.7822">
        <ele>266.90319824219</ele>
        <time>2012-09-09T07:09:06Z</time>
      </trkpt>
      <trkpt lat="45.81263" lon="4.78169">
        <ele>268.34509277344</ele>
        <time>2012-09-09T07:09:21Z</time>
      </trkpt>
      <trkpt lat="45.81267" lon="4.78163">
        <ele>268.34509277344</ele>
        <time>2012-09-09T07:09:22Z</time>
      </trkpt>
      <trkpt lat="45.81276" lon="4.78152">
        <ele>268.82580566406</ele>
        <time>2012-09-09T07:09:26Z</time>
      </trkpt>
      <trkpt lat="45.81278" lon="4.78151">
        <ele>268.82580566406</ele>
        <time>2012-09-09T07:09:27Z</time>
      </trkpt>
      <trkpt lat="45.81278" lon="4.78148">
        <ele>269.30651855469</ele>
        <time>2012-09-09T07:09:31Z</time>
      </trkpt>
      <trkpt lat="45.8127" lon="4.78159">
        <ele>268.34509277344</ele>
        <time>2012-09-09T07:09:36Z</time>
      </trkpt>
      <trkpt lat="45.8125" lon="4.78195">
        <ele>266.90319824219</ele>
        <time>2012-09-09T07:09:44Z</time>
      </trkpt>
      <trkpt lat="45.81233" lon="4.78224">
        <ele>266.90319824219</ele>
        <time>2012-09-09T07:09:52Z</time>
      </trkpt>
      <trkpt lat="45.81251" lon="4.78261">
        <ele>265.46130371094</ele>
        <time>2012-09-09T07:10:00Z</time>
      </trkpt>
      <trkpt lat="45.81274" lon="4.7827">
        <ele>265.46130371094</ele>
        <time>2012-09-09T07:10:08Z</time>
      </trkpt>
      <trkpt lat="45.81307" lon="4.7824">
        <ele>270.26770019531</ele>
        <time>2012-09-09T07:10:19Z</time>
      </trkpt>
      <trkpt lat="45.8131" lon="4.78239">
        <ele>270.26770019531</ele>
        <time>2012-09-09T07:10:20Z</time>
      </trkpt>
      <trkpt lat="45.81329" lon="4.78238">
        <ele>272.67114257812</ele>
        <time>2012-09-09T07:10:27Z</time>
      </trkpt>
      <trkpt lat="45.81355" lon="4.78238">
        <ele>274.59375</ele>
        <time>2012-09-09T07:10:37Z</time>
      </trkpt>
      <trkpt lat="45.81366" lon="4.78236">
        <ele>276.51635742188</ele>
        <time>2012-09-09T07:10:41Z</time>
      </trkpt>
      <trkpt lat="45.81415" lon="4.78246">
        <ele>280.36169433594</ele>
        <time>2012-09-09T07:11:00Z</time>
      </trkpt>
      <trkpt lat="45.81441" lon="4.78272">
        <ele>283.24560546875</ele>
        <time>2012-09-09T07:11:13Z</time>
      </trkpt>
      <trkpt lat="45.81466" lon="4.78296">
        <ele>286.12951660156</ele>
        <time>2012-09-09T07:11:26Z</time>
      </trkpt>
      <trkpt lat="45.81478" lon="4.78304">
        <ele>287.57141113281</ele>
        <time>2012-09-09T07:11:32Z</time>
      </trkpt>
      <trkpt lat="45.81513" lon="4.78304">
        <ele>290.45556640625</ele>
        <time>2012-09-09T07:11:48Z</time>
      </trkpt>
      <trkpt lat="45.81542" lon="4.78301">
        <ele>292.37817382812</ele>
        <time>2012-09-09T07:12:01Z</time>
      </trkpt>
      <trkpt lat="45.81542" lon="4.78279">
        <ele>294.30078125</ele>
        <time>2012-09-09T07:12:11Z</time>
      </trkpt>
      <trkpt lat="45.81505" lon="4.78274">
        <ele>296.7041015625</ele>
        <time>2012-09-09T07:12:27Z</time>
      </trkpt>
      <trkpt lat="45.815" lon="4.78239">
        <ele>299.58801269531</ele>
        <time>2012-09-09T07:12:39Z</time>
      </trkpt>
      <trkpt lat="45.81523" lon="4.78217">
        <ele>302.47192382812</ele>
        <time>2012-09-09T07:12:51Z</time>
      </trkpt>
      <trkpt lat="45.81553" lon="4.78194">
        <ele>305.83666992188</ele>
        <time>2012-09-09T07:13:07Z</time>
      </trkpt>
      <trkpt lat="45.81582" lon="4.78173">
        <ele>308.72045898438</ele>
        <time>2012-09-09T07:13:21Z</time>
      </trkpt>
      <trkpt lat="45.81617" lon="4.78123">
        <ele>311.12377929688</ele>
        <time>2012-09-09T07:13:40Z</time>
      </trkpt>
      <trkpt lat="45.81636" lon="4.78103">
        <ele>312.08520507812</ele>
        <time>2012-09-09T07:13:48Z</time>
      </trkpt>
      <trkpt lat="45.81685" lon="4.7807">
        <ele>313.52722167969</ele>
        <time>2012-09-09T07:14:05Z</time>
      </trkpt>
      <trkpt lat="45.81709" lon="4.78068">
        <ele>314.96911621094</ele>
        <time>2012-09-09T07:14:13Z</time>
      </trkpt>
      <trkpt lat="45.81717" lon="4.78067">
        <ele>315.44982910156</ele>
        <time>2012-09-09T07:14:16Z</time>
      </trkpt>
      <trkpt lat="45.81712" lon="4.78068">
        <ele>314.96911621094</ele>
        <time>2012-09-09T07:14:20Z</time>
      </trkpt>
      <trkpt lat="45.81705" lon="4.78068">
        <ele>314.96911621094</ele>
        <time>2012-09-09T07:14:22Z</time>
      </trkpt>
      <trkpt lat="45.81704" lon="4.78086">
        <ele>313.52722167969</ele>
        <time>2012-09-09T07:14:27Z</time>
      </trkpt>
      <trkpt lat="45.81707" lon="4.78099">
        <ele>313.04650878906</ele>
        <time>2012-09-09T07:14:32Z</time>
      </trkpt>
      <trkpt lat="45.81709" lon="4.78103">
        <ele>311.12377929688</ele>
        <time>2012-09-09T07:14:34Z</time>
      </trkpt>
      <trkpt lat="45.81725" lon="4.78135">
        <ele>306.7978515625</ele>
        <time>2012-09-09T07:14:43Z</time>
      </trkpt>
      <trkpt lat="45.81726" lon="4.78139">
        <ele>306.7978515625</ele>
        <time>2012-09-09T07:14:44Z</time>
      </trkpt>
      <trkpt lat="45.8173" lon="4.78146">
        <ele>305.35595703125</ele>
        <time>2012-09-09T07:14:46Z</time>
      </trkpt>
      <trkpt lat="45.81733" lon="4.78154">
        <ele>303.91394042969</ele>
        <time>2012-09-09T07:14:48Z</time>
      </trkpt>
      <trkpt lat="45.81738" lon="4.78161">
        <ele>301.99133300781</ele>
        <time>2012-09-09T07:14:51Z</time>
      </trkpt>
      <trkpt lat="45.81751" lon="4.78169">
        <ele>300.06872558594</ele>
        <time>2012-09-09T07:14:58Z</time>
      </trkpt>
      <trkpt lat="45.81786" lon="4.78176">
        <ele>297.18469238281</ele>
        <time>2012-09-09T07:15:08Z</time>
      </trkpt>
      <trkpt lat="45.81797" lon="4.78177">
        <ele>294.78137207031</ele>
        <time>2012-09-09T07:15:12Z</time>
      </trkpt>
      <trkpt lat="45.81802" lon="4.78179">
        <ele>294.78137207031</ele>
        <time>2012-09-09T07:15:14Z</time>
      </trkpt>
      <trkpt lat="45.81808" lon="4.7818">
        <ele>292.85876464844</ele>
        <time>2012-09-09T07:15:16Z</time>
      </trkpt>
      <trkpt lat="45.8183" lon="4.78194">
        <ele>289.97485351562</ele>
        <time>2012-09-09T07:15:20Z</time>
      </trkpt>
      <trkpt lat="45.81836" lon="4.78199">
        <ele>289.97485351562</ele>
        <time>2012-09-09T07:15:21Z</time>
      </trkpt>
      <trkpt lat="45.81869" lon="4.78233">
        <ele>288.05224609375</ele>
        <time>2012-09-09T07:15:30Z</time>
      </trkpt>
      <trkpt lat="45.81881" lon="4.78249">
        <ele>289.01354980469</ele>
        <time>2012-09-09T07:15:34Z</time>
      </trkpt>
      <trkpt lat="45.81893" lon="4.78264">
        <ele>289.01354980469</ele>
        <time>2012-09-09T07:15:38Z</time>
      </trkpt>
      <trkpt lat="45.81897" lon="4.78269">
        <ele>289.494140625</ele>
        <time>2012-09-09T07:15:40Z</time>
      </trkpt>
      <trkpt lat="45.81913" lon="4.78288">
        <ele>291.41674804688</ele>
        <time>2012-09-09T07:15:48Z</time>
      </trkpt>
      <trkpt lat="45.81929" lon="4.78313">
        <ele>292.85876464844</ele>
        <time>2012-09-09T07:15:55Z</time>
      </trkpt>
      <trkpt lat="45.81935" lon="4.78323">
        <ele>293.82006835938</ele>
        <time>2012-09-09T07:16:00Z</time>
      </trkpt>
      <trkpt lat="45.81938" lon="4.78328">
        <ele>293.82006835938</ele>
        <time>2012-09-09T07:16:04Z</time>
      </trkpt>
      <trkpt lat="45.81953" lon="4.7835">
        <ele>296.22351074219</ele>
        <time>2012-09-09T07:16:12Z</time>
      </trkpt>
      <trkpt lat="45.81957" lon="4.78356">
        <ele>296.22351074219</ele>
        <time>2012-09-09T07:16:14Z</time>
      </trkpt>
      <trkpt lat="45.81974" lon="4.78376">
        <ele>299.10729980469</ele>
        <time>2012-09-09T07:16:25Z</time>
      </trkpt>
      <trkpt lat="45.81979" lon="4.78384">
        <ele>299.10729980469</ele>
        <time>2012-09-09T07:16:31Z</time>
      </trkpt>
      <trkpt lat="45.82035" lon="4.78363">
        <ele>301.02990722656</ele>
        <time>2012-09-09T07:16:45Z</time>
      </trkpt>
      <trkpt lat="45.8204" lon="4.78365">
        <ele>300.06872558594</ele>
        <time>2012-09-09T07:16:48Z</time>
      </trkpt>
      <trkpt lat="45.82072" lon="4.78371">
        <ele>297.18469238281</ele>
        <time>2012-09-09T07:16:58Z</time>
      </trkpt>
      <trkpt lat="45.82075" lon="4.78372">
        <ele>300.54931640625</ele>
        <time>2012-09-09T07:16:59Z</time>
      </trkpt>
      <trkpt lat="45.82077" lon="4.78375">
        <ele>300.54931640625</ele>
        <time>2012-09-09T07:17:00Z</time>
      </trkpt>
      <trkpt lat="45.82093" lon="4.78373">
        <ele>301.02990722656</ele>
        <time>2012-09-09T07:17:10Z</time>
      </trkpt>
      <trkpt lat="45.82093" lon="4.78373">
        <ele>303.43322753906</ele>
        <time>2012-09-09T07:17:21Z</time>
      </trkpt>
      <trkpt lat="45.82093" lon="4.78373">
        <ele>301.02990722656</ele>
        <time>2012-09-09T07:17:23Z</time>
      </trkpt>
      <trkpt lat="45.82093" lon="4.78373">
        <ele>301.99133300781</ele>
        <time>2012-09-09T07:17:35Z</time>
      </trkpt>
      <trkpt lat="45.82093" lon="4.78373">
        <ele>301.99133300781</ele>
        <time>2012-09-09T07:17:52Z</time>
      </trkpt>
      <trkpt lat="45.82094" lon="4.78373">
        <ele>301.51062011719</ele>
        <time>2012-09-09T07:17:57Z</time>
      </trkpt>
      <trkpt lat="45.82063" lon="4.78369">
        <ele>301.02990722656</ele>
        <time>2012-09-09T07:18:08Z</time>
      </trkpt>
      <trkpt lat="45.82049" lon="4.78369">
        <ele>301.51062011719</ele>
        <time>2012-09-09T07:18:13Z</time>
      </trkpt>
      <trkpt lat="45.82034" lon="4.78363">
        <ele>301.02990722656</ele>
        <time>2012-09-09T07:18:18Z</time>
      </trkpt>
      <trkpt lat="45.81999" lon="4.7835">
        <ele>298.62670898438</ele>
        <time>2012-09-09T07:18:27Z</time>
      </trkpt>
      <trkpt lat="45.81962" lon="4.78339">
        <ele>295.26196289062</ele>
        <time>2012-09-09T07:18:36Z</time>
      </trkpt>
      <trkpt lat="45.81951" lon="4.78346">
        <ele>295.26196289062</ele>
        <time>2012-09-09T07:18:38Z</time>
      </trkpt>
      <trkpt lat="45.81957" lon="4.78343">
        <ele>295.74267578125</ele>
        <time>2012-09-09T07:18:44Z</time>
      </trkpt>
      <trkpt lat="45.81961" lon="4.78349">
        <ele>297.66540527344</ele>
        <time>2012-09-09T07:18:48Z</time>
      </trkpt>
      <trkpt lat="45.81972" lon="4.78366">
        <ele>301.02990722656</ele>
        <time>2012-09-09T07:18:59Z</time>
      </trkpt>
      <trkpt lat="45.8198" lon="4.7838">
        <ele>304.39465332031</ele>
        <time>2012-09-09T07:19:09Z</time>
      </trkpt>
      <trkpt lat="45.8198" lon="4.78382">
        <ele>304.39465332031</ele>
        <time>2012-09-09T07:19:10Z</time>
      </trkpt>
      <trkpt lat="45.81983" lon="4.78388">
        <ele>306.31726074219</ele>
        <time>2012-09-09T07:19:14Z</time>
      </trkpt>
      <trkpt lat="45.81988" lon="4.78394">
        <ele>308.23986816406</ele>
        <time>2012-09-09T07:19:26Z</time>
      </trkpt>
      <trkpt lat="45.81988" lon="4.78401">
        <ele>310.16247558594</ele>
        <time>2012-09-09T07:19:33Z</time>
      </trkpt>
      <trkpt lat="45.81984" lon="4.78411">
        <ele>312.56579589844</ele>
        <time>2012-09-09T07:19:40Z</time>
      </trkpt>
      <trkpt lat="45.81984" lon="4.78412">
        <ele>313.04650878906</ele>
        <time>2012-09-09T07:19:56Z</time>
      </trkpt>
      <trkpt lat="45.81964" lon="4.78407">
        <ele>313.04650878906</ele>
        <time>2012-09-09T07:20:11Z</time>
      </trkpt>
      <trkpt lat="45.81933" lon="4.78399">
        <ele>311.12377929688</ele>
        <time>2012-09-09T07:20:23Z</time>
      </trkpt>
      <trkpt lat="45.81912" lon="4.78391">
        <ele>310.64306640625</ele>
        <time>2012-09-09T07:20:36Z</time>
      </trkpt>
      <trkpt lat="45.81917" lon="4.78393">
        <ele>310.64306640625</ele>
        <time>2012-09-09T07:20:55Z</time>
      </trkpt>
      <trkpt lat="45.81938" lon="4.78398">
        <ele>312.08520507812</ele>
        <time>2012-09-09T07:21:08Z</time>
      </trkpt>
      <trkpt lat="45.81966" lon="4.78406">
        <ele>313.04650878906</ele>
        <time>2012-09-09T07:21:20Z</time>
      </trkpt>
      <trkpt lat="45.81979" lon="4.78415">
        <ele>314.48840332031</ele>
        <time>2012-09-09T07:21:32Z</time>
      </trkpt>
      <trkpt lat="45.81979" lon="4.78416">
        <ele>314.48840332031</ele>
        <time>2012-09-09T07:22:13Z</time>
      </trkpt>
      <trkpt lat="45.81984" lon="4.78415">
        <ele>314.0078125</ele>
        <time>2012-09-09T07:22:23Z</time>
      </trkpt>
      <trkpt lat="45.81986" lon="4.78402">
        <ele>312.08520507812</ele>
        <time>2012-09-09T07:22:28Z</time>
      </trkpt>
      <trkpt lat="45.81979" lon="4.78383">
        <ele>307.27856445312</ele>
        <time>2012-09-09T07:22:36Z</time>
      </trkpt>
      <trkpt lat="45.81973" lon="4.78373">
        <ele>304.87524414062</ele>
        <time>2012-09-09T07:22:41Z</time>
      </trkpt>
      <trkpt lat="45.81967" lon="4.78365">
        <ele>302.47192382812</ele>
        <time>2012-09-09T07:22:44Z</time>
      </trkpt>
      <trkpt lat="45.81957" lon="4.78353">
        <ele>299.58801269531</ele>
        <time>2012-09-09T07:22:48Z</time>
      </trkpt>
      <trkpt lat="45.81951" lon="4.78349">
        <ele>298.14611816406</ele>
        <time>2012-09-09T07:22:51Z</time>
      </trkpt>
      <trkpt lat="45.8195" lon="4.78349">
        <ele>298.14611816406</ele>
        <time>2012-09-09T07:22:52Z</time>
      </trkpt>
      <trkpt lat="45.81948" lon="4.78342">
        <ele>296.7041015625</ele>
        <time>2012-09-09T07:22:57Z</time>
      </trkpt>
      <trkpt lat="45.81951" lon="4.78344">
        <ele>297.18469238281</ele>
        <time>2012-09-09T07:22:59Z</time>
      </trkpt>
      <trkpt lat="45.81961" lon="4.78347">
        <ele>297.18469238281</ele>
        <time>2012-09-09T07:23:02Z</time>
      </trkpt>
      <trkpt lat="45.81982" lon="4.78359">
        <ele>300.06872558594</ele>
        <time>2012-09-09T07:23:12Z</time>
      </trkpt>
      <trkpt lat="45.8202" lon="4.78366">
        <ele>301.99133300781</ele>
        <time>2012-09-09T07:23:25Z</time>
      </trkpt>
      <trkpt lat="45.82023" lon="4.78367">
        <ele>302.47192382812</ele>
        <time>2012-09-09T07:23:26Z</time>
      </trkpt>
      <trkpt lat="45.82036" lon="4.78379">
        <ele>302.95251464844</ele>
        <time>2012-09-09T07:23:33Z</time>
      </trkpt>
      <trkpt lat="45.82082" lon="4.78375">
        <ele>302.47192382812</ele>
        <time>2012-09-09T07:23:43Z</time>
      </trkpt>
      <trkpt lat="45.82089" lon="4.78373">
        <ele>302.95251464844</ele>
        <time>2012-09-09T07:23:45Z</time>
      </trkpt>
      <trkpt lat="45.82117" lon="4.78382">
        <ele>303.91394042969</ele>
        <time>2012-09-09T07:23:55Z</time>
      </trkpt>
      <trkpt lat="45.82143" lon="4.78371">
        <ele>304.39465332031</ele>
        <time>2012-09-09T07:24:03Z</time>
      </trkpt>
      <trkpt lat="45.82148" lon="4.78369">
        <ele>304.87524414062</ele>
        <time>2012-09-09T07:24:05Z</time>
      </trkpt>
      <trkpt lat="45.82156" lon="4.78367">
        <ele>304.87524414062</ele>
        <time>2012-09-09T07:24:08Z</time>
      </trkpt>
      <trkpt lat="45.82185" lon="4.78371">
        <ele>306.7978515625</ele>
        <time>2012-09-09T07:24:18Z</time>
      </trkpt>
      <trkpt lat="45.8219" lon="4.78373">
        <ele>307.27856445312</ele>
        <time>2012-09-09T07:24:21Z</time>
      </trkpt>
      <trkpt lat="45.8222" lon="4.78387">
        <ele>310.16247558594</ele>
        <time>2012-09-09T07:24:33Z</time>
      </trkpt>
      <trkpt lat="45.82223" lon="4.78392">
        <ele>308.72045898438</ele>
        <time>2012-09-09T07:24:35Z</time>
      </trkpt>
      <trkpt lat="45.8224" lon="4.78396">
        <ele>309.201171875</ele>
        <time>2012-09-09T07:24:40Z</time>
      </trkpt>
      <trkpt lat="45.82248" lon="4.78395">
        <ele>309.68188476562</ele>
        <time>2012-09-09T07:24:44Z</time>
      </trkpt>
      <trkpt lat="45.82255" lon="4.78415">
        <ele>310.64306640625</ele>
        <time>2012-09-09T07:24:49Z</time>
      </trkpt>
      <trkpt lat="45.82271" lon="4.7843">
        <ele>314.0078125</ele>
        <time>2012-09-09T07:24:58Z</time>
      </trkpt>
      <trkpt lat="45.82277" lon="4.78435">
        <ele>314.48840332031</ele>
        <time>2012-09-09T07:25:01Z</time>
      </trkpt>
      <trkpt lat="45.82289" lon="4.78436">
        <ele>314.96911621094</ele>
        <time>2012-09-09T07:25:05Z</time>
      </trkpt>
      <trkpt lat="45.823" lon="4.78444">
        <ele>316.89172363281</ele>
        <time>2012-09-09T07:25:10Z</time>
      </trkpt>
      <trkpt lat="45.82315" lon="4.78461">
        <ele>318.33361816406</ele>
        <time>2012-09-09T07:25:20Z</time>
      </trkpt>
      <trkpt lat="45.82324" lon="4.78467">
        <ele>319.77563476562</ele>
        <time>2012-09-09T07:25:28Z</time>
      </trkpt>
      <trkpt lat="45.82328" lon="4.78468">
        <ele>321.2177734375</ele>
        <time>2012-09-09T07:25:31Z</time>
      </trkpt>
      <trkpt lat="45.8233" lon="4.78469">
        <ele>321.2177734375</ele>
        <time>2012-09-09T07:25:32Z</time>
      </trkpt>
      <trkpt lat="45.82333" lon="4.78477">
        <ele>323.14038085938</ele>
        <time>2012-09-09T07:25:40Z</time>
      </trkpt>
      <trkpt lat="45.82331" lon="4.78477">
        <ele>323.62097167969</ele>
        <time>2012-09-09T07:25:42Z</time>
      </trkpt>
      <trkpt lat="45.82328" lon="4.78482">
        <ele>324.1015625</ele>
        <time>2012-09-09T07:25:45Z</time>
      </trkpt>
      <trkpt lat="45.82326" lon="4.78491">
        <ele>325.54357910156</ele>
        <time>2012-09-09T07:25:51Z</time>
      </trkpt>
      <trkpt lat="45.82323" lon="4.78502">
        <ele>327.94677734375</ele>
        <time>2012-09-09T07:25:57Z</time>
      </trkpt>
      <trkpt lat="45.82321" lon="4.78507">
        <ele>328.42761230469</ele>
        <time>2012-09-09T07:26:00Z</time>
      </trkpt>
      <trkpt lat="45.82323" lon="4.78511">
        <ele>328.42761230469</ele>
        <time>2012-09-09T07:26:03Z</time>
      </trkpt>
      <trkpt lat="45.82334" lon="4.78512">
        <ele>330.83093261719</ele>
        <time>2012-09-09T07:26:10Z</time>
      </trkpt>
      <trkpt lat="45.8234" lon="4.78513">
        <ele>332.27282714844</ele>
        <time>2012-09-09T07:26:15Z</time>
      </trkpt>
      <trkpt lat="45.82346" lon="4.78517">
        <ele>333.23413085938</ele>
        <time>2012-09-09T07:26:19Z</time>
      </trkpt>
      <trkpt lat="45.82352" lon="4.78526">
        <ele>335.63732910156</ele>
        <time>2012-09-09T07:26:27Z</time>
      </trkpt>
      <trkpt lat="45.82358" lon="4.78542">
        <ele>337.56005859375</ele>
        <time>2012-09-09T07:26:36Z</time>
      </trkpt>
      <trkpt lat="45.82357" lon="4.78546">
        <ele>338.521484375</ele>
        <time>2012-09-09T07:26:39Z</time>
      </trkpt>
      <trkpt lat="45.82362" lon="4.78557">
        <ele>339.48266601562</ele>
        <time>2012-09-09T07:26:47Z</time>
      </trkpt>
      <trkpt lat="45.82364" lon="4.7856">
        <ele>340.92468261719</ele>
        <time>2012-09-09T07:26:49Z</time>
      </trkpt>
      <trkpt lat="45.82367" lon="4.78564">
        <ele>341.4052734375</ele>
        <time>2012-09-09T07:26:52Z</time>
      </trkpt>
      <trkpt lat="45.82382" lon="4.78577">
        <ele>343.32788085938</ele>
        <time>2012-09-09T07:27:03Z</time>
      </trkpt>
      <trkpt lat="45.82398" lon="4.78587">
        <ele>346.21203613281</ele>
        <time>2012-09-09T07:27:16Z</time>
      </trkpt>
      <trkpt lat="45.82416" lon="4.78595">
        <ele>348.13464355469</ele>
        <time>2012-09-09T07:27:28Z</time>
      </trkpt>
      <trkpt lat="45.82433" lon="4.78603">
        <ele>350.05725097656</ele>
        <time>2012-09-09T07:27:41Z</time>
      </trkpt>
      <trkpt lat="45.82443" lon="4.78607">
        <ele>351.01843261719</ele>
        <time>2012-09-09T07:27:49Z</time>
      </trkpt>
      <trkpt lat="45.82459" lon="4.7861">
        <ele>353.421875</ele>
        <time>2012-09-09T07:28:00Z</time>
      </trkpt>
      <trkpt lat="45.82475" lon="4.78612">
        <ele>353.90258789062</ele>
        <time>2012-09-09T07:28:10Z</time>
      </trkpt>
      <trkpt lat="45.82476" lon="4.78612">
        <ele>354.86376953125</ele>
        <time>2012-09-09T07:28:11Z</time>
      </trkpt>
      <trkpt lat="45.82496" lon="4.78617">
        <ele>356.30578613281</ele>
        <time>2012-09-09T07:28:23Z</time>
      </trkpt>
      <trkpt lat="45.82524" lon="4.78624">
        <ele>358.22839355469</ele>
        <time>2012-09-09T07:28:39Z</time>
      </trkpt>
      <trkpt lat="45.82548" lon="4.78632">
        <ele>359.67041015625</ele>
        <time>2012-09-09T07:28:53Z</time>
      </trkpt>
      <trkpt lat="45.82561" lon="4.78638">
        <ele>360.63171386719</ele>
        <time>2012-09-09T07:29:01Z</time>
      </trkpt>
      <trkpt lat="45.82579" lon="4.78647">
        <ele>362.55432128906</ele>
        <time>2012-09-09T07:29:14Z</time>
      </trkpt>
      <trkpt lat="45.8258" lon="4.78648">
        <ele>362.55432128906</ele>
        <time>2012-09-09T07:29:15Z</time>
      </trkpt>
      <trkpt lat="45.82601" lon="4.78666">
        <ele>364.95764160156</ele>
        <time>2012-09-09T07:29:30Z</time>
      </trkpt>
      <trkpt lat="45.82617" lon="4.78678">
        <ele>366.39953613281</ele>
        <time>2012-09-09T07:29:40Z</time>
      </trkpt>
      <trkpt lat="45.82628" lon="4.78688">
        <ele>367.36096191406</ele>
        <time>2012-09-09T07:29:50Z</time>
      </trkpt>
      <trkpt lat="45.82631" lon="4.78691">
        <ele>367.84155273438</ele>
        <time>2012-09-09T07:29:52Z</time>
      </trkpt>
      <trkpt lat="45.82635" lon="4.78696">
        <ele>368.322265625</ele>
        <time>2012-09-09T07:29:57Z</time>
      </trkpt>
      <trkpt lat="45.82643" lon="4.78702">
        <ele>369.76428222656</ele>
        <time>2012-09-09T07:30:02Z</time>
      </trkpt>
      <trkpt lat="45.82646" lon="4.78706">
        <ele>370.24487304688</ele>
        <time>2012-09-09T07:30:04Z</time>
      </trkpt>
      <trkpt lat="45.82649" lon="4.78712">
        <ele>371.20629882812</ele>
        <time>2012-09-09T07:30:09Z</time>
      </trkpt>
      <trkpt lat="45.82655" lon="4.78721">
        <ele>372.16748046875</ele>
        <time>2012-09-09T07:30:16Z</time>
      </trkpt>
      <trkpt lat="45.82665" lon="4.78733">
        <ele>374.09008789062</ele>
        <time>2012-09-09T07:30:24Z</time>
      </trkpt>
      <trkpt lat="45.82666" lon="4.78739">
        <ele>374.09008789062</ele>
        <time>2012-09-09T07:30:27Z</time>
      </trkpt>
      <trkpt lat="45.82668" lon="4.78742">
        <ele>374.57080078125</ele>
        <time>2012-09-09T07:30:30Z</time>
      </trkpt>
      <trkpt lat="45.82672" lon="4.78742">
        <ele>375.53210449219</ele>
        <time>2012-09-09T07:30:33Z</time>
      </trkpt>
      <trkpt lat="45.82711" lon="4.78695">
        <ele>376.49353027344</ele>
        <time>2012-09-09T07:30:53Z</time>
      </trkpt>
      <trkpt lat="45.82738" lon="4.78683">
        <ele>377.45483398438</ele>
        <time>2012-09-09T07:31:04Z</time>
      </trkpt>
      <trkpt lat="45.82775" lon="4.78673">
        <ele>378.89685058594</ele>
        <time>2012-09-09T07:31:16Z</time>
      </trkpt>
      <trkpt lat="45.8281" lon="4.78625">
        <ele>379.85803222656</ele>
        <time>2012-09-09T07:31:29Z</time>
      </trkpt>
      <trkpt lat="45.82798" lon="4.78565">
        <ele>380.81945800781</ele>
        <time>2012-09-09T07:31:41Z</time>
      </trkpt>
      <trkpt lat="45.82787" lon="4.78513">
        <ele>381.78063964844</ele>
        <time>2012-09-09T07:31:52Z</time>
      </trkpt>
      <trkpt lat="45.82804" lon="4.7846">
        <ele>385.14538574219</ele>
        <time>2012-09-09T07:32:05Z</time>
      </trkpt>
      <trkpt lat="45.82844" lon="4.78442">
        <ele>385.14538574219</ele>
        <time>2012-09-09T07:32:18Z</time>
      </trkpt>
      <trkpt lat="45.82884" lon="4.78445">
        <ele>385.6259765625</ele>
        <time>2012-09-09T07:32:30Z</time>
      </trkpt>
      <trkpt lat="45.82915" lon="4.78452">
        <ele>386.58740234375</ele>
        <time>2012-09-09T07:32:41Z</time>
      </trkpt>
      <trkpt lat="45.82925" lon="4.78447">
        <ele>387.54858398438</ele>
        <time>2012-09-09T07:32:44Z</time>
      </trkpt>
      <trkpt lat="45.82983" lon="4.78407">
        <ele>389.95190429688</ele>
        <time>2012-09-09T07:33:02Z</time>
      </trkpt>
      <trkpt lat="45.83018" lon="4.7838">
        <ele>391.87451171875</ele>
        <time>2012-09-09T07:33:14Z</time>
      </trkpt>
      <trkpt lat="45.83032" lon="4.78324">
        <ele>394.27795410156</ele>
        <time>2012-09-09T07:33:28Z</time>
      </trkpt>
      <trkpt lat="45.83007" lon="4.7826">
        <ele>397.16174316406</ele>
        <time>2012-09-09T07:33:45Z</time>
      </trkpt>
      <trkpt lat="45.82998" lon="4.78202">
        <ele>399.56506347656</ele>
        <time>2012-09-09T07:34:00Z</time>
      </trkpt>
      <trkpt lat="45.8301" lon="4.782">
        <ele>400.52648925781</ele>
        <time>2012-09-09T07:34:05Z</time>
      </trkpt>
      <trkpt lat="45.83032" lon="4.78224">
        <ele>404.85229492188</ele>
        <time>2012-09-09T07:34:20Z</time>
      </trkpt>
      <trkpt lat="45.83056" lon="4.78243">
        <ele>408.21704101562</ele>
        <time>2012-09-09T07:34:36Z</time>
      </trkpt>
      <trkpt lat="45.83081" lon="4.7826">
        <ele>410.62023925781</ele>
        <time>2012-09-09T07:34:52Z</time>
      </trkpt>
      <trkpt lat="45.83105" lon="4.78277">
        <ele>413.98486328125</ele>
        <time>2012-09-09T07:35:10Z</time>
      </trkpt>
      <trkpt lat="45.83108" lon="4.78279">
        <ele>417.349609375</ele>
        <time>2012-09-09T07:35:21Z</time>
      </trkpt>
      <trkpt lat="45.83108" lon="4.78279">
        <ele>417.349609375</ele>
        <time>2012-09-09T07:35:23Z</time>
      </trkpt>
      <trkpt lat="45.83134" lon="4.78279">
        <ele>421.19482421875</ele>
        <time>2012-09-09T07:35:36Z</time>
      </trkpt>
      <trkpt lat="45.83137" lon="4.78278">
        <ele>422.15600585938</ele>
        <time>2012-09-09T07:35:41Z</time>
      </trkpt>
      <trkpt lat="45.83137" lon="4.78278">
        <ele>423.11743164062</ele>
        <time>2012-09-09T07:35:43Z</time>
      </trkpt>
      <trkpt lat="45.83156" lon="4.78267">
        <ele>424.55944824219</ele>
        <time>2012-09-09T07:35:53Z</time>
      </trkpt>
      <trkpt lat="45.83179" lon="4.78266">
        <ele>427.92395019531</ele>
        <time>2012-09-09T07:36:06Z</time>
      </trkpt>
      <trkpt lat="45.832" lon="4.78271">
        <ele>431.28857421875</ele>
        <time>2012-09-09T07:36:20Z</time>
      </trkpt>
      <trkpt lat="45.83231" lon="4.78283">
        <ele>432.73071289062</ele>
        <time>2012-09-09T07:36:36Z</time>
      </trkpt>
      <trkpt lat="45.83244" lon="4.7829">
        <ele>433.69189453125</ele>
        <time>2012-09-09T07:36:44Z</time>
      </trkpt>
      <trkpt lat="45.83259" lon="4.7829">
        <ele>435.61450195312</ele>
        <time>2012-09-09T07:36:54Z</time>
      </trkpt>
      <trkpt lat="45.83266" lon="4.78334">
        <ele>437.537109375</ele>
        <time>2012-09-09T07:37:09Z</time>
      </trkpt>
      <trkpt lat="45.83257" lon="4.78368">
        <ele>440.90185546875</ele>
        <time>2012-09-09T07:37:23Z</time>
      </trkpt>
      <trkpt lat="45.8324" lon="4.78425">
        <ele>442.34387207031</ele>
        <time>2012-09-09T07:37:42Z</time>
      </trkpt>
      <trkpt lat="45.83236" lon="4.7844">
        <ele>441.86315917969</ele>
        <time>2012-09-09T07:37:45Z</time>
      </trkpt>
      <trkpt lat="45.83224" lon="4.78452">
        <ele>440.90185546875</ele>
        <time>2012-09-09T07:37:48Z</time>
      </trkpt>
      <trkpt lat="45.83207" lon="4.78466">
        <ele>439.9404296875</ele>
        <time>2012-09-09T07:37:52Z</time>
      </trkpt>
      <trkpt lat="45.83185" lon="4.78492">
        <ele>440.42126464844</ele>
        <time>2012-09-09T07:37:58Z</time>
      </trkpt>
      <trkpt lat="45.83175" lon="4.78509">
        <ele>440.42126464844</ele>
        <time>2012-09-09T07:38:02Z</time>
      </trkpt>
      <trkpt lat="45.83164" lon="4.7852">
        <ele>440.42126464844</ele>
        <time>2012-09-09T07:38:05Z</time>
      </trkpt>
      <trkpt lat="45.83124" lon="4.78545">
        <ele>443.30505371094</ele>
        <time>2012-09-09T07:38:18Z</time>
      </trkpt>
      <trkpt lat="45.83096" lon="4.78576">
        <ele>445.22766113281</ele>
        <time>2012-09-09T07:38:33Z</time>
      </trkpt>
      <trkpt lat="45.83074" lon="4.78619">
        <ele>448.59240722656</ele>
        <time>2012-09-09T07:38:50Z</time>
      </trkpt>
      <trkpt lat="45.83043" lon="4.7868">
        <ele>446.18908691406</ele>
        <time>2012-09-09T07:39:04Z</time>
      </trkpt>
      <trkpt lat="45.83012" lon="4.78743">
        <ele>445.22766113281</ele>
        <time>2012-09-09T07:39:14Z</time>
      </trkpt>
      <trkpt lat="45.83002" lon="4.78762">
        <ele>444.7470703125</ele>
        <time>2012-09-09T07:39:17Z</time>
      </trkpt>
      <trkpt lat="45.82965" lon="4.78803">
        <ele>447.15026855469</ele>
        <time>2012-09-09T07:39:29Z</time>
      </trkpt>
      <trkpt lat="45.82958" lon="4.78808">
        <ele>445.22766113281</ele>
        <time>2012-09-09T07:39:31Z</time>
      </trkpt>
      <trkpt lat="45.82952" lon="4.78814">
        <ele>446.66967773438</ele>
        <time>2012-09-09T07:39:33Z</time>
      </trkpt>
      <trkpt lat="45.82939" lon="4.78826">
        <ele>449.07299804688</ele>
        <time>2012-09-09T07:39:38Z</time>
      </trkpt>
      <trkpt lat="45.82893" lon="4.78857">
        <ele>447.15026855469</ele>
        <time>2012-09-09T07:39:50Z</time>
      </trkpt>
      <trkpt lat="45.82846" lon="4.78888">
        <ele>443.30505371094</ele>
        <time>2012-09-09T07:39:58Z</time>
      </trkpt>
      <trkpt lat="45.82798" lon="4.78922">
        <ele>440.42126464844</ele>
        <time>2012-09-09T07:40:05Z</time>
      </trkpt>
      <trkpt lat="45.82792" lon="4.78928">
        <ele>440.42126464844</ele>
        <time>2012-09-09T07:40:06Z</time>
      </trkpt>
      <trkpt lat="45.82771" lon="4.78946">
        <ele>439.9404296875</ele>
        <time>2012-09-09T07:40:09Z</time>
      </trkpt>
      <trkpt lat="45.82735" lon="4.78976">
        <ele>439.9404296875</ele>
        <time>2012-09-09T07:40:15Z</time>
      </trkpt>
      <trkpt lat="45.82721" lon="4.78997">
        <ele>441.86315917969</ele>
        <time>2012-09-09T07:40:19Z</time>
      </trkpt>
      <trkpt lat="45.82702" lon="4.79055">
        <ele>444.7470703125</ele>
        <time>2012-09-09T07:40:30Z</time>
      </trkpt>
      <trkpt lat="45.82696" lon="4.79076">
        <ele>444.26647949219</ele>
        <time>2012-09-09T07:40:34Z</time>
      </trkpt>
      <trkpt lat="45.82691" lon="4.79098">
        <ele>444.26647949219</ele>
        <time>2012-09-09T07:40:40Z</time>
      </trkpt>
      <trkpt lat="45.82721" lon="4.79106">
        <ele>446.18908691406</ele>
        <time>2012-09-09T07:40:51Z</time>
      </trkpt>
      <trkpt lat="45.82775" lon="4.79119">
        <ele>450.03442382812</ele>
        <time>2012-09-09T07:41:10Z</time>
      </trkpt>
      <trkpt lat="45.82815" lon="4.79129">
        <ele>452.43762207031</ele>
        <time>2012-09-09T07:41:26Z</time>
      </trkpt>
      <trkpt lat="45.82843" lon="4.7916">
        <ele>454.8408203125</ele>
        <time>2012-09-09T07:41:41Z</time>
      </trkpt>
      <trkpt lat="45.82862" lon="4.7922">
        <ele>457.24426269531</ele>
        <time>2012-09-09T07:42:00Z</time>
      </trkpt>
      <trkpt lat="45.82884" lon="4.79279">
        <ele>460.12817382812</ele>
        <time>2012-09-09T07:42:19Z</time>
      </trkpt>
      <trkpt lat="45.8293" lon="4.79302">
        <ele>461.57019042969</ele>
        <time>2012-09-09T07:42:36Z</time>
      </trkpt>
      <trkpt lat="45.82959" lon="4.79299">
        <ele>464.4541015625</ele>
        <time>2012-09-09T07:42:47Z</time>
      </trkpt>
      <trkpt lat="45.82983" lon="4.79287">
        <ele>465.41552734375</ele>
        <time>2012-09-09T07:42:59Z</time>
      </trkpt>
      <trkpt lat="45.83018" lon="4.79279">
        <ele>467.81872558594</ele>
        <time>2012-09-09T07:43:12Z</time>
      </trkpt>
      <trkpt lat="45.83046" lon="4.79277">
        <ele>470.22192382812</ele>
        <time>2012-09-09T07:43:23Z</time>
      </trkpt>
      <trkpt lat="45.83085" lon="4.79276">
        <ele>471.66394042969</ele>
        <time>2012-09-09T07:43:39Z</time>
      </trkpt>
      <trkpt lat="45.83129" lon="4.79283">
        <ele>474.54797363281</ele>
        <time>2012-09-09T07:43:55Z</time>
      </trkpt>
      <trkpt lat="45.83164" lon="4.79293">
        <ele>475.98986816406</ele>
        <time>2012-09-09T07:44:09Z</time>
      </trkpt>
      <trkpt lat="45.83162" lon="4.79286">
        <ele>475.98986816406</ele>
        <time>2012-09-09T07:44:14Z</time>
      </trkpt>
      <trkpt lat="45.83167" lon="4.79294">
        <ele>476.47058105469</ele>
        <time>2012-09-09T07:44:19Z</time>
      </trkpt>
      <trkpt lat="45.83193" lon="4.793">
        <ele>479.83508300781</ele>
        <time>2012-09-09T07:44:31Z</time>
      </trkpt>
      <trkpt lat="45.83211" lon="4.79305">
        <ele>482.23852539062</ele>
        <time>2012-09-09T07:44:44Z</time>
      </trkpt>
      <trkpt lat="45.83233" lon="4.79254">
        <ele>484.64184570312</ele>
        <time>2012-09-09T07:44:56Z</time>
      </trkpt>
      <trkpt lat="45.8324" lon="4.79248">
        <ele>486.564453125</ele>
        <time>2012-09-09T07:45:00Z</time>
      </trkpt>
      <trkpt lat="45.83264" lon="4.7924">
        <ele>487.52563476562</ele>
        <time>2012-09-09T07:45:13Z</time>
      </trkpt>
      <trkpt lat="45.83299" lon="4.79232">
        <ele>488.48718261719</ele>
        <time>2012-09-09T07:45:27Z</time>
      </trkpt>
      <trkpt lat="45.83311" lon="4.79229">
        <ele>488.00646972656</ele>
        <time>2012-09-09T07:45:32Z</time>
      </trkpt>
      <trkpt lat="45.83332" lon="4.79224">
        <ele>489.92907714844</ele>
        <time>2012-09-09T07:45:40Z</time>
      </trkpt>
      <trkpt lat="45.83347" lon="4.79194">
        <ele>492.81298828125</ele>
        <time>2012-09-09T07:45:54Z</time>
      </trkpt>
      <trkpt lat="45.83355" lon="4.79184">
        <ele>494.73559570312</ele>
        <time>2012-09-09T07:46:00Z</time>
      </trkpt>
      <trkpt lat="45.83358" lon="4.79181">
        <ele>494.73559570312</ele>
        <time>2012-09-09T07:46:03Z</time>
      </trkpt>
      <trkpt lat="45.83375" lon="4.79169">
        <ele>497.13891601562</ele>
        <time>2012-09-09T07:46:15Z</time>
      </trkpt>
      <trkpt lat="45.83397" lon="4.79159">
        <ele>499.0615234375</ele>
        <time>2012-09-09T07:46:28Z</time>
      </trkpt>
      <trkpt lat="45.83423" lon="4.79148">
        <ele>501.46484375</ele>
        <time>2012-09-09T07:46:41Z</time>
      </trkpt>
      <trkpt lat="45.83448" lon="4.79139">
        <ele>502.90673828125</ele>
        <time>2012-09-09T07:46:53Z</time>
      </trkpt>
      <trkpt lat="45.83489" lon="4.79127">
        <ele>504.82946777344</ele>
        <time>2012-09-09T07:47:12Z</time>
      </trkpt>
      <trkpt lat="45.83499" lon="4.79124">
        <ele>505.31018066406</ele>
        <time>2012-09-09T07:47:17Z</time>
      </trkpt>
      <trkpt lat="45.83526" lon="4.79121">
        <ele>507.23278808594</ele>
        <time>2012-09-09T07:47:30Z</time>
      </trkpt>
      <trkpt lat="45.83565" lon="4.79114">
        <ele>507.23278808594</ele>
        <time>2012-09-09T07:47:45Z</time>
      </trkpt>
      <trkpt lat="45.83608" lon="4.79113">
        <ele>509.15539550781</ele>
        <time>2012-09-09T07:47:59Z</time>
      </trkpt>
      <trkpt lat="45.83645" lon="4.79097">
        <ele>511.55871582031</ele>
        <time>2012-09-09T07:48:15Z</time>
      </trkpt>
      <trkpt lat="45.8367" lon="4.79086">
        <ele>512.52001953125</ele>
        <time>2012-09-09T07:48:25Z</time>
      </trkpt>
      <trkpt lat="45.83702" lon="4.79091">
        <ele>513.4814453125</ele>
        <time>2012-09-09T07:48:37Z</time>
      </trkpt>
      <trkpt lat="45.83741" lon="4.79082">
        <ele>515.88464355469</ele>
        <time>2012-09-09T07:48:53Z</time>
      </trkpt>
      <trkpt lat="45.83765" lon="4.79061">
        <ele>519.24926757812</ele>
        <time>2012-09-09T07:49:09Z</time>
      </trkpt>
      <trkpt lat="45.83769" lon="4.79058">
        <ele>519.72985839844</ele>
        <time>2012-09-09T07:49:11Z</time>
      </trkpt>
      <trkpt lat="45.83792" lon="4.79042">
        <ele>522.61389160156</ele>
        <time>2012-09-09T07:49:27Z</time>
      </trkpt>
      <trkpt lat="45.83817" lon="4.79042">
        <ele>524.05578613281</ele>
        <time>2012-09-09T07:49:41Z</time>
      </trkpt>
      <trkpt lat="45.83854" lon="4.7904">
        <ele>525.97839355469</ele>
        <time>2012-09-09T07:49:57Z</time>
      </trkpt>
      <trkpt lat="45.83886" lon="4.79036">
        <ele>526.93981933594</ele>
        <time>2012-09-09T07:50:11Z</time>
      </trkpt>
      <trkpt lat="45.83926" lon="4.79026">
        <ele>529.34313964844</ele>
        <time>2012-09-09T07:50:29Z</time>
      </trkpt>
      <trkpt lat="45.8393" lon="4.79025">
        <ele>529.82373046875</ele>
        <time>2012-09-09T07:50:31Z</time>
      </trkpt>
      <trkpt lat="45.83954" lon="4.79015">
        <ele>531.74633789062</ele>
        <time>2012-09-09T07:50:43Z</time>
      </trkpt>
      <trkpt lat="45.83987" lon="4.79023">
        <ele>532.22705078125</ele>
        <time>2012-09-09T07:50:55Z</time>
      </trkpt>
      <trkpt lat="45.84034" lon="4.79039">
        <ele>532.22705078125</ele>
        <time>2012-09-09T07:51:09Z</time>
      </trkpt>
      <trkpt lat="45.84066" lon="4.79049">
        <ele>532.22705078125</ele>
        <time>2012-09-09T07:51:19Z</time>
      </trkpt>
      <trkpt lat="45.84081" lon="4.79053">
        <ele>533.18835449219</ele>
        <time>2012-09-09T07:51:24Z</time>
      </trkpt>
      <trkpt lat="45.84092" lon="4.79057">
        <ele>533.18835449219</ele>
        <time>2012-09-09T07:51:29Z</time>
      </trkpt>
      <trkpt lat="45.84111" lon="4.79083">
        <ele>532.22705078125</ele>
        <time>2012-09-09T07:51:36Z</time>
      </trkpt>
      <trkpt lat="45.84138" lon="4.79121">
        <ele>528.86254882812</ele>
        <time>2012-09-09T07:51:42Z</time>
      </trkpt>
      <trkpt lat="45.84179" lon="4.79177">
        <ele>525.49780273438</ele>
        <time>2012-09-09T07:51:49Z</time>
      </trkpt>
      <trkpt lat="45.84185" lon="4.79186">
        <ele>525.49780273438</ele>
        <time>2012-09-09T07:51:50Z</time>
      </trkpt>
      <trkpt lat="45.84223" lon="4.79237">
        <ele>520.21057128906</ele>
        <time>2012-09-09T07:51:56Z</time>
      </trkpt>
      <trkpt lat="45.84235" lon="4.79291">
        <ele>517.32666015625</ele>
        <time>2012-09-09T07:52:01Z</time>
      </trkpt>
      <trkpt lat="45.84222" lon="4.79319">
        <ele>515.40405273438</ele>
        <time>2012-09-09T07:52:04Z</time>
      </trkpt>
      <trkpt lat="45.84211" lon="4.79334">
        <ele>514.92333984375</ele>
        <time>2012-09-09T07:52:05Z</time>
      </trkpt>
      <trkpt lat="45.84195" lon="4.79329">
        <ele>516.365234375</ele>
        <time>2012-09-09T07:52:08Z</time>
      </trkpt>
      <trkpt lat="45.84173" lon="4.79338">
        <ele>514.92333984375</ele>
        <time>2012-09-09T07:52:11Z</time>
      </trkpt>
      <trkpt lat="45.8411" lon="4.79369">
        <ele>518.28784179688</ele>
        <time>2012-09-09T07:52:21Z</time>
      </trkpt>
      <trkpt lat="45.84083" lon="4.79387">
        <ele>520.69128417969</ele>
        <time>2012-09-09T07:52:27Z</time>
      </trkpt>
      <trkpt lat="45.84032" lon="4.79425">
        <ele>524.05578613281</ele>
        <time>2012-09-09T07:52:42Z</time>
      </trkpt>
      <trkpt lat="45.83942" lon="4.79502">
        <ele>522.61389160156</ele>
        <time>2012-09-09T07:53:07Z</time>
      </trkpt>
      <trkpt lat="45.83926" lon="4.79517">
        <ele>522.13317871094</ele>
        <time>2012-09-09T07:53:11Z</time>
      </trkpt>
      <trkpt lat="45.83871" lon="4.7962">
        <ele>521.17199707031</ele>
        <time>2012-09-09T07:53:30Z</time>
      </trkpt>
      <trkpt lat="45.83838" lon="4.79741">
        <ele>520.21057128906</ele>
        <time>2012-09-09T07:53:47Z</time>
      </trkpt>
      <trkpt lat="45.83798" lon="4.79827">
        <ele>519.24926757812</ele>
        <time>2012-09-09T07:53:59Z</time>
      </trkpt>
      <trkpt lat="45.83787" lon="4.7985">
        <ele>517.80725097656</ele>
        <time>2012-09-09T07:54:02Z</time>
      </trkpt>
      <trkpt lat="45.83774" lon="4.79882">
        <ele>515.88464355469</ele>
        <time>2012-09-09T07:54:06Z</time>
      </trkpt>
      <trkpt lat="45.8378" lon="4.79911">
        <ele>515.88464355469</ele>
        <time>2012-09-09T07:54:13Z</time>
      </trkpt>
      <trkpt lat="45.83784" lon="4.79909">
        <ele>516.84594726562</ele>
        <time>2012-09-09T07:54:14Z</time>
      </trkpt>
      <trkpt lat="45.83809" lon="4.79902">
        <ele>520.69128417969</ele>
        <time>2012-09-09T07:54:22Z</time>
      </trkpt>
      <trkpt lat="45.83811" lon="4.79901">
        <ele>520.69128417969</ele>
        <time>2012-09-09T07:54:23Z</time>
      </trkpt>
      <trkpt lat="45.83827" lon="4.79895">
        <ele>523.5751953125</ele>
        <time>2012-09-09T07:54:31Z</time>
      </trkpt>
      <trkpt lat="45.8383" lon="4.79894">
        <ele>523.5751953125</ele>
        <time>2012-09-09T07:54:32Z</time>
      </trkpt>
      <trkpt lat="45.83855" lon="4.79892">
        <ele>525.49780273438</ele>
        <time>2012-09-09T07:54:44Z</time>
      </trkpt>
      <trkpt lat="45.83881" lon="4.79892">
        <ele>528.86254882812</ele>
        <time>2012-09-09T07:54:56Z</time>
      </trkpt>
      <trkpt lat="45.83893" lon="4.79893">
        <ele>530.30444335938</ele>
        <time>2012-09-09T07:55:04Z</time>
      </trkpt>
      <trkpt lat="45.83893" lon="4.79893">
        <ele>532.22705078125</ele>
        <time>2012-09-09T07:55:13Z</time>
      </trkpt>
      <trkpt lat="45.83905" lon="4.79898">
        <ele>533.6689453125</ele>
        <time>2012-09-09T07:55:17Z</time>
      </trkpt>
      <trkpt lat="45.83919" lon="4.79908">
        <ele>535.11096191406</ele>
        <time>2012-09-09T07:55:26Z</time>
      </trkpt>
      <trkpt lat="45.83932" lon="4.79919">
        <ele>536.55310058594</ele>
        <time>2012-09-09T07:55:33Z</time>
      </trkpt>
      <trkpt lat="45.83952" lon="4.79954">
        <ele>539.43688964844</ele>
        <time>2012-09-09T07:55:49Z</time>
      </trkpt>
      <trkpt lat="45.83967" lon="4.79991">
        <ele>542.80151367188</ele>
        <time>2012-09-09T07:56:06Z</time>
      </trkpt>
      <trkpt lat="45.83976" lon="4.80043">
        <ele>544.24365234375</ele>
        <time>2012-09-09T07:56:23Z</time>
      </trkpt>
      <trkpt lat="45.84006" lon="4.8008">
        <ele>547.60815429688</ele>
        <time>2012-09-09T07:56:40Z</time>
      </trkpt>
      <trkpt lat="45.84031" lon="4.80083">
        <ele>550.4921875</ele>
        <time>2012-09-09T07:56:57Z</time>
      </trkpt>
      <trkpt lat="45.84059" lon="4.80079">
        <ele>553.85668945312</ele>
        <time>2012-09-09T07:57:13Z</time>
      </trkpt>
      <trkpt lat="45.84083" lon="4.80075">
        <ele>556.74072265625</ele>
        <time>2012-09-09T07:57:29Z</time>
      </trkpt>
      <trkpt lat="45.84118" lon="4.80074">
        <ele>559.62475585938</ele>
        <time>2012-09-09T07:57:49Z</time>
      </trkpt>
      <trkpt lat="45.84141" lon="4.80074">
        <ele>562.9892578125</ele>
        <time>2012-09-09T07:58:08Z</time>
      </trkpt>
      <trkpt lat="45.8416" lon="4.80077">
        <ele>564.91186523438</ele>
        <time>2012-09-09T07:58:21Z</time>
      </trkpt>
      <trkpt lat="45.84187" lon="4.8">
        <ele>569.71850585938</ele>
        <time>2012-09-09T07:58:39Z</time>
      </trkpt>
      <trkpt lat="45.84189" lon="4.79998">
        <ele>569.71850585938</ele>
        <time>2012-09-09T07:58:40Z</time>
      </trkpt>
      <trkpt lat="45.8422" lon="4.79986">
        <ele>573.08325195312</ele>
        <time>2012-09-09T07:58:59Z</time>
      </trkpt>
      <trkpt lat="45.84232" lon="4.7996">
        <ele>573.08325195312</ele>
        <time>2012-09-09T07:59:15Z</time>
      </trkpt>
      <trkpt lat="45.84229" lon="4.79952">
        <ele>572.6025390625</ele>
        <time>2012-09-09T07:59:19Z</time>
      </trkpt>
      <trkpt lat="45.84228" lon="4.79948">
        <ele>574.52514648438</ele>
        <time>2012-09-09T07:59:21Z</time>
      </trkpt>
      <trkpt lat="45.84225" lon="4.79945">
        <ele>575.005859375</ele>
        <time>2012-09-09T07:59:24Z</time>
      </trkpt>
      <trkpt lat="45.84219" lon="4.79938">
        <ele>574.52514648438</ele>
        <time>2012-09-09T07:59:28Z</time>
      </trkpt>
      <trkpt lat="45.84203" lon="4.79923">
        <ele>577.8896484375</ele>
        <time>2012-09-09T07:59:39Z</time>
      </trkpt>
      <trkpt lat="45.84192" lon="4.79912">
        <ele>580.29296875</ele>
        <time>2012-09-09T07:59:47Z</time>
      </trkpt>
      <trkpt lat="45.84182" lon="4.79896">
        <ele>581.73486328125</ele>
        <time>2012-09-09T07:59:56Z</time>
      </trkpt>
      <trkpt lat="45.84179" lon="4.79885">
        <ele>579.81225585938</ele>
        <time>2012-09-09T08:00:01Z</time>
      </trkpt>
      <trkpt lat="45.84176" lon="4.7987">
        <ele>580.77368164062</ele>
        <time>2012-09-09T08:00:07Z</time>
      </trkpt>
      <trkpt lat="45.84172" lon="4.79833">
        <ele>584.13818359375</ele>
        <time>2012-09-09T08:00:23Z</time>
      </trkpt>
      <trkpt lat="45.84164" lon="4.798">
        <ele>587.02197265625</ele>
        <time>2012-09-09T08:00:37Z</time>
      </trkpt>
      <trkpt lat="45.84161" lon="4.79792">
        <ele>587.50268554688</ele>
        <time>2012-09-09T08:00:41Z</time>
      </trkpt>
      <trkpt lat="45.84169" lon="4.7978">
        <ele>589.42553710938</ele>
        <time>2012-09-09T08:00:47Z</time>
      </trkpt>
      <trkpt lat="45.84171" lon="4.7978">
        <ele>589.42553710938</ele>
        <time>2012-09-09T08:00:48Z</time>
      </trkpt>
      <trkpt lat="45.84189" lon="4.79785">
        <ele>589.90625</ele>
        <time>2012-09-09T08:01:01Z</time>
      </trkpt>
      <trkpt lat="45.842" lon="4.79788">
        <ele>590.38696289062</ele>
        <time>2012-09-09T08:01:20Z</time>
      </trkpt>
      <trkpt lat="45.84202" lon="4.79788">
        <ele>589.90625</ele>
        <time>2012-09-09T08:01:34Z</time>
      </trkpt>
      <trkpt lat="45.84203" lon="4.79789">
        <ele>590.38696289062</ele>
        <time>2012-09-09T08:02:10Z</time>
      </trkpt>
      <trkpt lat="45.84222" lon="4.79796">
        <ele>588.94506835938</ele>
        <time>2012-09-09T08:02:23Z</time>
      </trkpt>
      <trkpt lat="45.84222" lon="4.79796">
        <ele>588.46435546875</ele>
        <time>2012-09-09T08:02:36Z</time>
      </trkpt>
      <trkpt lat="45.84222" lon="4.79796">
        <ele>588.46435546875</ele>
        <time>2012-09-09T08:02:39Z</time>
      </trkpt>
      <trkpt lat="45.84229" lon="4.79813">
        <ele>588.94506835938</ele>
        <time>2012-09-09T08:02:43Z</time>
      </trkpt>
      <trkpt lat="45.8423" lon="4.79815">
        <ele>587.50268554688</ele>
        <time>2012-09-09T08:02:59Z</time>
      </trkpt>
      <trkpt lat="45.8423" lon="4.79815">
        <ele>587.50268554688</ele>
        <time>2012-09-09T08:05:13Z</time>
      </trkpt>
      <trkpt lat="45.84241" lon="4.7985">
        <ele>585.099609375</ele>
        <time>2012-09-09T08:05:25Z</time>
      </trkpt>
      <trkpt lat="45.84245" lon="4.79855">
        <ele>584.13818359375</ele>
        <time>2012-09-09T08:05:27Z</time>
      </trkpt>
      <trkpt lat="45.84249" lon="4.79861">
        <ele>583.1767578125</ele>
        <time>2012-09-09T08:05:37Z</time>
      </trkpt>
      <trkpt lat="45.84249" lon="4.79861">
        <ele>583.1767578125</ele>
        <time>2012-09-09T08:05:38Z</time>
      </trkpt>
      <trkpt lat="45.84254" lon="4.79868">
        <ele>582.21557617188</ele>
        <time>2012-09-09T08:05:41Z</time>
      </trkpt>
      <trkpt lat="45.84279" lon="4.79899">
        <ele>578.37036132812</ele>
        <time>2012-09-09T08:05:50Z</time>
      </trkpt>
      <trkpt lat="45.84283" lon="4.79902">
        <ele>578.37036132812</ele>
        <time>2012-09-09T08:05:51Z</time>
      </trkpt>
      <trkpt lat="45.8431" lon="4.79929">
        <ele>575.486328125</ele>
        <time>2012-09-09T08:06:02Z</time>
      </trkpt>
      <trkpt lat="45.8431" lon="4.79929">
        <ele>574.52514648438</ele>
        <time>2012-09-09T08:06:19Z</time>
      </trkpt>
      <trkpt lat="45.84331" lon="4.79943">
        <ele>573.56396484375</ele>
        <time>2012-09-09T08:06:43Z</time>
      </trkpt>
      <trkpt lat="45.84359" lon="4.79959">
        <ele>570.19897460938</ele>
        <time>2012-09-09T08:06:51Z</time>
      </trkpt>
      <trkpt lat="45.84363" lon="4.79963">
        <ele>569.23779296875</ele>
        <time>2012-09-09T08:06:53Z</time>
      </trkpt>
      <trkpt lat="45.84367" lon="4.7997">
        <ele>568.75708007812</ele>
        <time>2012-09-09T08:06:55Z</time>
      </trkpt>
      <trkpt lat="45.84369" lon="4.79982">
        <ele>567.31518554688</ele>
        <time>2012-09-09T08:06:58Z</time>
      </trkpt>
      <trkpt lat="45.84368" lon="4.79994">
        <ele>566.35375976562</ele>
        <time>2012-09-09T08:07:01Z</time>
      </trkpt>
      <trkpt lat="45.84367" lon="4.80023">
        <ele>563.95043945312</ele>
        <time>2012-09-09T08:07:09Z</time>
      </trkpt>
      <trkpt lat="45.8438" lon="4.80043">
        <ele>561.06665039062</ele>
        <time>2012-09-09T08:07:16Z</time>
      </trkpt>
      <trkpt lat="45.84383" lon="4.80048">
        <ele>560.5859375</ele>
        <time>2012-09-09T08:07:18Z</time>
      </trkpt>
      <trkpt lat="45.84407" lon="4.80065">
        <ele>555.779296875</ele>
        <time>2012-09-09T08:07:26Z</time>
      </trkpt>
      <trkpt lat="45.84411" lon="4.80069">
        <ele>555.779296875</ele>
        <time>2012-09-09T08:07:27Z</time>
      </trkpt>
      <trkpt lat="45.84419" lon="4.80083">
        <ele>555.779296875</ele>
        <time>2012-09-09T08:07:29Z</time>
      </trkpt>
      <trkpt lat="45.84445" lon="4.80136">
        <ele>550.97265625</ele>
        <time>2012-09-09T08:07:40Z</time>
      </trkpt>
      <trkpt lat="45.84451" lon="4.80151">
        <ele>549.53076171875</ele>
        <time>2012-09-09T08:07:43Z</time>
      </trkpt>
      <trkpt lat="45.84454" lon="4.80157">
        <ele>549.53076171875</ele>
        <time>2012-09-09T08:07:46Z</time>
      </trkpt>
      <trkpt lat="45.84441" lon="4.80163">
        <ele>547.12744140625</ele>
        <time>2012-09-09T08:07:52Z</time>
      </trkpt>
      <trkpt lat="45.84406" lon="4.80154">
        <ele>547.12744140625</ele>
        <time>2012-09-09T08:08:05Z</time>
      </trkpt>
      <trkpt lat="45.84367" lon="4.80137">
        <ele>548.0888671875</ele>
        <time>2012-09-09T08:08:18Z</time>
      </trkpt>
      <trkpt lat="45.84364" lon="4.80142">
        <ele>549.53076171875</ele>
        <time>2012-09-09T08:08:22Z</time>
      </trkpt>
      <trkpt lat="45.84369" lon="4.80146">
        <ele>549.05004882812</ele>
        <time>2012-09-09T08:08:25Z</time>
      </trkpt>
      <trkpt lat="45.84418" lon="4.80157">
        <ele>548.0888671875</ele>
        <time>2012-09-09T08:08:41Z</time>
      </trkpt>
      <trkpt lat="45.8444" lon="4.80177">
        <ele>547.12744140625</ele>
        <time>2012-09-09T08:08:52Z</time>
      </trkpt>
      <trkpt lat="45.84454" lon="4.80201">
        <ele>546.16625976562</ele>
        <time>2012-09-09T08:09:14Z</time>
      </trkpt>
      <trkpt lat="45.84478" lon="4.80212">
        <ele>544.72424316406</ele>
        <time>2012-09-09T08:09:18Z</time>
      </trkpt>
      <trkpt lat="45.84478" lon="4.80238">
        <ele>541.84020996094</ele>
        <time>2012-09-09T08:09:21Z</time>
      </trkpt>
      <trkpt lat="45.84487" lon="4.80246">
        <ele>539.91760253906</ele>
        <time>2012-09-09T08:09:23Z</time>
      </trkpt>
      <trkpt lat="45.84491" lon="4.8025">
        <ele>540.87890625</ele>
        <time>2012-09-09T08:09:24Z</time>
      </trkpt>
      <trkpt lat="45.84513" lon="4.80249">
        <ele>538.95629882812</ele>
        <time>2012-09-09T08:09:28Z</time>
      </trkpt>
      <trkpt lat="45.84522" lon="4.80257">
        <ele>537.51428222656</ele>
        <time>2012-09-09T08:09:30Z</time>
      </trkpt>
      <trkpt lat="45.84548" lon="4.80266">
        <ele>535.59155273438</ele>
        <time>2012-09-09T08:09:38Z</time>
      </trkpt>
      <trkpt lat="45.84557" lon="4.80264">
        <ele>533.18835449219</ele>
        <time>2012-09-09T08:09:44Z</time>
      </trkpt>
      <trkpt lat="45.84572" lon="4.80266">
        <ele>531.26574707031</ele>
        <time>2012-09-09T08:09:47Z</time>
      </trkpt>
      <trkpt lat="45.84581" lon="4.80269">
        <ele>530.78515625</ele>
        <time>2012-09-09T08:09:55Z</time>
      </trkpt>
      <trkpt lat="45.84581" lon="4.80269">
        <ele>530.78515625</ele>
        <time>2012-09-09T08:10:04Z</time>
      </trkpt>
      <trkpt lat="45.84587" lon="4.80271">
        <ele>530.30444335938</ele>
        <time>2012-09-09T08:10:10Z</time>
      </trkpt>
      <trkpt lat="45.84596" lon="4.80274">
        <ele>526.45910644531</ele>
        <time>2012-09-09T08:10:18Z</time>
      </trkpt>
      <trkpt lat="45.84597" lon="4.80275">
        <ele>526.45910644531</ele>
        <time>2012-09-09T08:10:19Z</time>
      </trkpt>
      <trkpt lat="45.84599" lon="4.80275">
        <ele>525.49780273438</ele>
        <time>2012-09-09T08:10:21Z</time>
      </trkpt>
      <trkpt lat="45.84603" lon="4.80276">
        <ele>522.61389160156</ele>
        <time>2012-09-09T08:10:25Z</time>
      </trkpt>
      <trkpt lat="45.84594" lon="4.80379">
        <ele>520.69128417969</ele>
        <time>2012-09-09T08:10:28Z</time>
      </trkpt>
      <trkpt lat="45.84596" lon="4.80384">
        <ele>519.72985839844</ele>
        <time>2012-09-09T08:10:40Z</time>
      </trkpt>
      <trkpt lat="45.84595" lon="4.80404">
        <ele>516.365234375</ele>
        <time>2012-09-09T08:11:03Z</time>
      </trkpt>
      <trkpt lat="45.84596" lon="4.8041">
        <ele>515.88464355469</ele>
        <time>2012-09-09T08:11:05Z</time>
      </trkpt>
      <trkpt lat="45.84597" lon="4.80417">
        <ele>513.96203613281</ele>
        <time>2012-09-09T08:11:07Z</time>
      </trkpt>
      <trkpt lat="45.84599" lon="4.80428">
        <ele>511.07800292969</ele>
        <time>2012-09-09T08:11:11Z</time>
      </trkpt>
      <trkpt lat="45.84601" lon="4.80431">
        <ele>511.07800292969</ele>
        <time>2012-09-09T08:11:12Z</time>
      </trkpt>
      <trkpt lat="45.84611" lon="4.80451">
        <ele>508.19409179688</ele>
        <time>2012-09-09T08:11:19Z</time>
      </trkpt>
      <trkpt lat="45.84623" lon="4.80478">
        <ele>504.82946777344</ele>
        <time>2012-09-09T08:11:25Z</time>
      </trkpt>
      <trkpt lat="45.84625" lon="4.80485">
        <ele>504.82946777344</ele>
        <time>2012-09-09T08:11:26Z</time>
      </trkpt>
      <trkpt lat="45.84631" lon="4.80499">
        <ele>504.82946777344</ele>
        <time>2012-09-09T08:11:28Z</time>
      </trkpt>
      <trkpt lat="45.84646" lon="4.80539">
        <ele>502.90673828125</ele>
        <time>2012-09-09T08:11:34Z</time>
      </trkpt>
      <trkpt lat="45.84653" lon="4.80558">
        <ele>501.46484375</ele>
        <time>2012-09-09T08:11:37Z</time>
      </trkpt>
      <trkpt lat="45.84658" lon="4.8057">
        <ele>500.02294921875</ele>
        <time>2012-09-09T08:11:39Z</time>
      </trkpt>
      <trkpt lat="45.8466" lon="4.80642">
        <ele>497.61962890625</ele>
        <time>2012-09-09T08:11:42Z</time>
      </trkpt>
      <trkpt lat="45.84665" lon="4.80643">
        <ele>496.177734375</ele>
        <time>2012-09-09T08:11:44Z</time>
      </trkpt>
      <trkpt lat="45.84674" lon="4.80644">
        <ele>492.81298828125</ele>
        <time>2012-09-09T08:11:48Z</time>
      </trkpt>
      <trkpt lat="45.84676" lon="4.80645">
        <ele>492.81298828125</ele>
        <time>2012-09-09T08:11:49Z</time>
      </trkpt>
      <trkpt lat="45.8468" lon="4.80645">
        <ele>491.37097167969</ele>
        <time>2012-09-09T08:11:51Z</time>
      </trkpt>
      <trkpt lat="45.84688" lon="4.80645">
        <ele>490.40979003906</ele>
        <time>2012-09-09T08:11:54Z</time>
      </trkpt>
      <trkpt lat="45.84729" lon="4.80645">
        <ele>488.9677734375</ele>
        <time>2012-09-09T08:12:05Z</time>
      </trkpt>
      <trkpt lat="45.84747" lon="4.80639">
        <ele>489.44836425781</ele>
        <time>2012-09-09T08:12:10Z</time>
      </trkpt>
      <trkpt lat="45.84776" lon="4.8063">
        <ele>489.44836425781</ele>
        <time>2012-09-09T08:12:17Z</time>
      </trkpt>
      <trkpt lat="45.84847" lon="4.8064">
        <ele>489.92907714844</ele>
        <time>2012-09-09T08:12:31Z</time>
      </trkpt>
      <trkpt lat="45.84864" lon="4.80645">
        <ele>490.40979003906</ele>
        <time>2012-09-09T08:12:35Z</time>
      </trkpt>
      <trkpt lat="45.84903" lon="4.80663">
        <ele>490.89038085938</ele>
        <time>2012-09-09T08:12:43Z</time>
      </trkpt>
      <trkpt lat="45.84947" lon="4.80665">
        <ele>492.33239746094</ele>
        <time>2012-09-09T08:12:54Z</time>
      </trkpt>
      <trkpt lat="45.8496" lon="4.80689">
        <ele>490.40979003906</ele>
        <time>2012-09-09T08:12:58Z</time>
      </trkpt>
      <trkpt lat="45.84979" lon="4.80728">
        <ele>488.9677734375</ele>
        <time>2012-09-09T08:13:05Z</time>
      </trkpt>
      <trkpt lat="45.84997" lon="4.80766">
        <ele>489.92907714844</ele>
        <time>2012-09-09T08:13:13Z</time>
      </trkpt>
      <trkpt lat="45.85009" lon="4.80783">
        <ele>488.9677734375</ele>
        <time>2012-09-09T08:13:17Z</time>
      </trkpt>
      <trkpt lat="45.85038" lon="4.80819">
        <ele>485.60302734375</ele>
        <time>2012-09-09T08:13:24Z</time>
      </trkpt>
      <trkpt lat="45.85056" lon="4.80842">
        <ele>483.19982910156</ele>
        <time>2012-09-09T08:13:28Z</time>
      </trkpt>
      <trkpt lat="45.85066" lon="4.80855">
        <ele>479.83508300781</ele>
        <time>2012-09-09T08:13:30Z</time>
      </trkpt>
      <trkpt lat="45.8507" lon="4.80862">
        <ele>479.83508300781</ele>
        <time>2012-09-09T08:13:31Z</time>
      </trkpt>
      <trkpt lat="45.85083" lon="4.80879">
        <ele>478.39318847656</ele>
        <time>2012-09-09T08:13:33Z</time>
      </trkpt>
      <trkpt lat="45.85094" lon="4.80895">
        <ele>476.95129394531</ele>
        <time>2012-09-09T08:13:35Z</time>
      </trkpt>
      <trkpt lat="45.85112" lon="4.8092">
        <ele>475.02868652344</ele>
        <time>2012-09-09T08:13:38Z</time>
      </trkpt>
      <trkpt lat="45.85121" lon="4.80931">
        <ele>473.58666992188</ele>
        <time>2012-09-09T08:13:40Z</time>
      </trkpt>
      <trkpt lat="45.85131" lon="4.80945">
        <ele>471.66394042969</ele>
        <time>2012-09-09T08:13:42Z</time>
      </trkpt>
      <trkpt lat="45.85151" lon="4.80964">
        <ele>468.78002929688</ele>
        <time>2012-09-09T08:13:45Z</time>
      </trkpt>
      <trkpt lat="45.85179" lon="4.8099">
        <ele>466.857421875</ele>
        <time>2012-09-09T08:13:49Z</time>
      </trkpt>
      <trkpt lat="45.85197" lon="4.81007">
        <ele>465.89611816406</ele>
        <time>2012-09-09T08:13:51Z</time>
      </trkpt>
      <trkpt lat="45.85219" lon="4.81026">
        <ele>464.93481445312</ele>
        <time>2012-09-09T08:13:54Z</time>
      </trkpt>
      <trkpt lat="45.85237" lon="4.8106">
        <ele>462.53137207031</ele>
        <time>2012-09-09T08:13:58Z</time>
      </trkpt>
      <trkpt lat="45.85241" lon="4.81068">
        <ele>462.05078125</ele>
        <time>2012-09-09T08:13:59Z</time>
      </trkpt>
      <trkpt lat="45.85245" lon="4.81085">
        <ele>461.08947753906</ele>
        <time>2012-09-09T08:14:01Z</time>
      </trkpt>
      <trkpt lat="45.85248" lon="4.81096">
        <ele>459.64758300781</ele>
        <time>2012-09-09T08:14:02Z</time>
      </trkpt>
      <trkpt lat="45.85298" lon="4.81125">
        <ele>456.28295898438</ele>
        <time>2012-09-09T08:14:08Z</time>
      </trkpt>
      <trkpt lat="45.8531" lon="4.81139">
        <ele>454.8408203125</ele>
        <time>2012-09-09T08:14:10Z</time>
      </trkpt>
      <trkpt lat="45.85337" lon="4.81166">
        <ele>451.95703125</ele>
        <time>2012-09-09T08:14:15Z</time>
      </trkpt>
      <trkpt lat="45.85347" lon="4.81172">
        <ele>450.99560546875</ele>
        <time>2012-09-09T08:14:17Z</time>
      </trkpt>
      <trkpt lat="45.85359" lon="4.8118">
        <ele>449.5537109375</ele>
        <time>2012-09-09T08:14:19Z</time>
      </trkpt>
      <trkpt lat="45.85379" lon="4.81194">
        <ele>446.66967773438</ele>
        <time>2012-09-09T08:14:22Z</time>
      </trkpt>
      <trkpt lat="45.8541" lon="4.81217">
        <ele>443.78576660156</ele>
        <time>2012-09-09T08:14:27Z</time>
      </trkpt>
      <trkpt lat="45.85417" lon="4.81222">
        <ele>443.78576660156</ele>
        <time>2012-09-09T08:14:28Z</time>
      </trkpt>
      <trkpt lat="45.85451" lon="4.81246">
        <ele>440.90185546875</ele>
        <time>2012-09-09T08:14:34Z</time>
      </trkpt>
      <trkpt lat="45.85492" lon="4.81274">
        <ele>439.45971679688</ele>
        <time>2012-09-09T08:14:43Z</time>
      </trkpt>
      <trkpt lat="45.85493" lon="4.81285">
        <ele>438.49853515625</ele>
        <time>2012-09-09T08:14:44Z</time>
      </trkpt>
      <trkpt lat="45.85491" lon="4.81285">
        <ele>437.537109375</ele>
        <time>2012-09-09T08:14:49Z</time>
      </trkpt>
      <trkpt lat="45.85482" lon="4.81284">
        <ele>435.61450195312</ele>
        <time>2012-09-09T08:14:52Z</time>
      </trkpt>
      <trkpt lat="45.85479" lon="4.81283">
        <ele>435.13391113281</ele>
        <time>2012-09-09T08:14:53Z</time>
      </trkpt>
      <trkpt lat="45.85462" lon="4.81387">
        <ele>433.69189453125</ele>
        <time>2012-09-09T08:15:00Z</time>
      </trkpt>
      <trkpt lat="45.85477" lon="4.81474">
        <ele>430.32727050781</ele>
        <time>2012-09-09T08:15:08Z</time>
      </trkpt>
      <trkpt lat="45.85484" lon="4.81499">
        <ele>428.40466308594</ele>
        <time>2012-09-09T08:15:10Z</time>
      </trkpt>
      <trkpt lat="45.85491" lon="4.81525">
        <ele>426.96276855469</ele>
        <time>2012-09-09T08:15:12Z</time>
      </trkpt>
      <trkpt lat="45.85499" lon="4.81553">
        <ele>422.63671875</ele>
        <time>2012-09-09T08:15:14Z</time>
      </trkpt>
      <trkpt lat="45.85503" lon="4.81567">
        <ele>422.63671875</ele>
        <time>2012-09-09T08:15:15Z</time>
      </trkpt>
      <trkpt lat="45.85511" lon="4.81596">
        <ele>420.71411132812</ele>
        <time>2012-09-09T08:15:17Z</time>
      </trkpt>
      <trkpt lat="45.85528" lon="4.81654">
        <ele>415.42687988281</ele>
        <time>2012-09-09T08:15:21Z</time>
      </trkpt>
      <trkpt lat="45.85531" lon="4.81668">
        <ele>415.42687988281</ele>
        <time>2012-09-09T08:15:22Z</time>
      </trkpt>
      <trkpt lat="45.8554" lon="4.81707">
        <ele>413.02355957031</ele>
        <time>2012-09-09T08:15:25Z</time>
      </trkpt>
      <trkpt lat="45.85521" lon="4.81762">
        <ele>410.1396484375</ele>
        <time>2012-09-09T08:15:31Z</time>
      </trkpt>
      <trkpt lat="45.85506" lon="4.81766">
        <ele>407.736328125</ele>
        <time>2012-09-09T08:15:33Z</time>
      </trkpt>
      <trkpt lat="45.85484" lon="4.81756">
        <ele>408.69763183594</ele>
        <time>2012-09-09T08:15:36Z</time>
      </trkpt>
      <trkpt lat="45.8547" lon="4.81754">
        <ele>412.54284667969</ele>
        <time>2012-09-09T08:15:40Z</time>
      </trkpt>
      <trkpt lat="45.85427" lon="4.81748">
        <ele>413.50427246094</ele>
        <time>2012-09-09T08:15:51Z</time>
      </trkpt>
      <trkpt lat="45.85393" lon="4.8174">
        <ele>413.98486328125</ele>
        <time>2012-09-09T08:15:58Z</time>
      </trkpt>
      <trkpt lat="45.85393" lon="4.8174">
        <ele>414.46545410156</ele>
        <time>2012-09-09T08:16:03Z</time>
      </trkpt>
      <trkpt lat="45.85341" lon="4.81708">
        <ele>416.86889648438</ele>
        <time>2012-09-09T08:16:12Z</time>
      </trkpt>
      <trkpt lat="45.85321" lon="4.81697">
        <ele>416.86889648438</ele>
        <time>2012-09-09T08:16:18Z</time>
      </trkpt>
      <trkpt lat="45.85301" lon="4.8169">
        <ele>417.83020019531</ele>
        <time>2012-09-09T08:16:23Z</time>
      </trkpt>
      <trkpt lat="45.85252" lon="4.81688">
        <ele>418.79150390625</ele>
        <time>2012-09-09T08:16:34Z</time>
      </trkpt>
      <trkpt lat="45.85205" lon="4.81727">
        <ele>419.27221679688</ele>
        <time>2012-09-09T08:16:45Z</time>
      </trkpt>
      <trkpt lat="45.85171" lon="4.81759">
        <ele>420.71411132812</ele>
        <time>2012-09-09T08:16:54Z</time>
      </trkpt>
      <trkpt lat="45.85116" lon="4.8179">
        <ele>423.11743164062</ele>
        <time>2012-09-09T08:17:08Z</time>
      </trkpt>
      <trkpt lat="45.85085" lon="4.81754">
        <ele>424.07873535156</ele>
        <time>2012-09-09T08:17:19Z</time>
      </trkpt>
      <trkpt lat="45.85073" lon="4.81673">
        <ele>426.00134277344</ele>
        <time>2012-09-09T08:17:34Z</time>
      </trkpt>
      <trkpt lat="45.85072" lon="4.81584">
        <ele>427.443359375</ele>
        <time>2012-09-09T08:17:50Z</time>
      </trkpt>
      <trkpt lat="45.85086" lon="4.8148">
        <ele>430.80798339844</ele>
        <time>2012-09-09T08:18:09Z</time>
      </trkpt>
      <trkpt lat="45.85112" lon="4.81387">
        <ele>433.69189453125</ele>
        <time>2012-09-09T08:18:27Z</time>
      </trkpt>
      <trkpt lat="45.85128" lon="4.81343">
        <ele>435.13391113281</ele>
        <time>2012-09-09T08:18:36Z</time>
      </trkpt>
      <trkpt lat="45.85112" lon="4.81304">
        <ele>436.09521484375</ele>
        <time>2012-09-09T08:18:46Z</time>
      </trkpt>
      <trkpt lat="45.85109" lon="4.81303">
        <ele>436.09521484375</ele>
        <time>2012-09-09T08:18:47Z</time>
      </trkpt>
      <trkpt lat="45.85064" lon="4.81302">
        <ele>437.05651855469</ele>
        <time>2012-09-09T08:18:59Z</time>
      </trkpt>
      <trkpt lat="45.85053" lon="4.81305">
        <ele>438.97912597656</ele>
        <time>2012-09-09T08:19:02Z</time>
      </trkpt>
      <trkpt lat="45.85012" lon="4.81317">
        <ele>439.9404296875</ele>
        <time>2012-09-09T08:19:12Z</time>
      </trkpt>
      <trkpt lat="45.8497" lon="4.81303">
        <ele>441.38244628906</ele>
        <time>2012-09-09T08:19:24Z</time>
      </trkpt>
      <trkpt lat="45.84945" lon="4.81261">
        <ele>443.78576660156</ele>
        <time>2012-09-09T08:19:35Z</time>
      </trkpt>
      <trkpt lat="45.84923" lon="4.81184">
        <ele>447.15026855469</ele>
        <time>2012-09-09T08:19:52Z</time>
      </trkpt>
      <trkpt lat="45.84903" lon="4.81109">
        <ele>448.59240722656</ele>
        <time>2012-09-09T08:20:09Z</time>
      </trkpt>
      <trkpt lat="45.84881" lon="4.81095">
        <ele>449.5537109375</ele>
        <time>2012-09-09T08:20:18Z</time>
      </trkpt>
      <trkpt lat="45.84842" lon="4.81094">
        <ele>446.66967773438</ele>
        <time>2012-09-09T08:20:29Z</time>
      </trkpt>
      <trkpt lat="45.8483" lon="4.81092">
        <ele>444.7470703125</ele>
        <time>2012-09-09T08:20:31Z</time>
      </trkpt>
      <trkpt lat="45.84811" lon="4.81088">
        <ele>443.30505371094</ele>
        <time>2012-09-09T08:20:34Z</time>
      </trkpt>
      <trkpt lat="45.84797" lon="4.81075">
        <ele>441.38244628906</ele>
        <time>2012-09-09T08:20:37Z</time>
      </trkpt>
      <trkpt lat="45.84792" lon="4.81066">
        <ele>441.38244628906</ele>
        <time>2012-09-09T08:20:39Z</time>
      </trkpt>
      <trkpt lat="45.84779" lon="4.81044">
        <ele>438.01782226562</ele>
        <time>2012-09-09T08:20:47Z</time>
      </trkpt>
      <trkpt lat="45.84777" lon="4.8104">
        <ele>438.01782226562</ele>
        <time>2012-09-09T08:20:48Z</time>
      </trkpt>
      <trkpt lat="45.84771" lon="4.8103">
        <ele>435.61450195312</ele>
        <time>2012-09-09T08:20:51Z</time>
      </trkpt>
      <trkpt lat="45.84731" lon="4.80985">
        <ele>433.21130371094</ele>
        <time>2012-09-09T08:20:57Z</time>
      </trkpt>
      <trkpt lat="45.84726" lon="4.80999">
        <ele>429.36596679688</ele>
        <time>2012-09-09T08:20:59Z</time>
      </trkpt>
      <trkpt lat="45.84718" lon="4.81022">
        <ele>427.443359375</ele>
        <time>2012-09-09T08:21:02Z</time>
      </trkpt>
      <trkpt lat="45.84715" lon="4.8103">
        <ele>425.52075195312</ele>
        <time>2012-09-09T08:21:03Z</time>
      </trkpt>
      <trkpt lat="45.84706" lon="4.81062">
        <ele>421.67541503906</ele>
        <time>2012-09-09T08:21:06Z</time>
      </trkpt>
      <trkpt lat="45.84705" lon="4.81074">
        <ele>421.67541503906</ele>
        <time>2012-09-09T08:21:07Z</time>
      </trkpt>
      <trkpt lat="45.84703" lon="4.81085">
        <ele>420.2333984375</ele>
        <time>2012-09-09T08:21:08Z</time>
      </trkpt>
      <trkpt lat="45.84697" lon="4.81116">
        <ele>418.79150390625</ele>
        <time>2012-09-09T08:21:11Z</time>
      </trkpt>
      <trkpt lat="45.84655" lon="4.81128">
        <ele>414.46545410156</ele>
        <time>2012-09-09T08:21:13Z</time>
      </trkpt>
      <trkpt lat="45.84635" lon="4.81183">
        <ele>412.06225585938</ele>
        <time>2012-09-09T08:21:18Z</time>
      </trkpt>
      <trkpt lat="45.84623" lon="4.81207">
        <ele>409.17834472656</ele>
        <time>2012-09-09T08:21:20Z</time>
      </trkpt>
      <trkpt lat="45.84617" lon="4.81216">
        <ele>409.17834472656</ele>
        <time>2012-09-09T08:21:21Z</time>
      </trkpt>
      <trkpt lat="45.84608" lon="4.81234">
        <ele>407.736328125</ele>
        <time>2012-09-09T08:21:23Z</time>
      </trkpt>
      <trkpt lat="45.84593" lon="4.81261">
        <ele>405.3330078125</ele>
        <time>2012-09-09T08:21:26Z</time>
      </trkpt>
      <trkpt lat="45.84579" lon="4.81273">
        <ele>402.9296875</ele>
        <time>2012-09-09T08:21:28Z</time>
      </trkpt>
      <trkpt lat="45.84562" lon="4.81278">
        <ele>401.96850585938</ele>
        <time>2012-09-09T08:21:30Z</time>
      </trkpt>
      <trkpt lat="45.84547" lon="4.81278">
        <ele>401.00708007812</ele>
        <time>2012-09-09T08:21:32Z</time>
      </trkpt>
      <trkpt lat="45.84519" lon="4.81263">
        <ele>397.16174316406</ele>
        <time>2012-09-09T08:21:36Z</time>
      </trkpt>
      <trkpt lat="45.84514" lon="4.81255">
        <ele>397.16174316406</ele>
        <time>2012-09-09T08:21:37Z</time>
      </trkpt>
      <trkpt lat="45.84507" lon="4.81247">
        <ele>395.23913574219</ele>
        <time>2012-09-09T08:21:38Z</time>
      </trkpt>
      <trkpt lat="45.84489" lon="4.81224">
        <ele>393.31652832031</ele>
        <time>2012-09-09T08:21:41Z</time>
      </trkpt>
      <trkpt lat="45.84484" lon="4.81217">
        <ele>392.35534667969</ele>
        <time>2012-09-09T08:21:42Z</time>
      </trkpt>
      <trkpt lat="45.84476" lon="4.81202">
        <ele>390.91320800781</ele>
        <time>2012-09-09T08:21:44Z</time>
      </trkpt>
      <trkpt lat="45.84469" lon="4.81186">
        <ele>389.47119140625</ele>
        <time>2012-09-09T08:21:46Z</time>
      </trkpt>
      <trkpt lat="45.84449" lon="4.81194">
        <ele>388.029296875</ele>
        <time>2012-09-09T08:21:51Z</time>
      </trkpt>
      <trkpt lat="45.84449" lon="4.81203">
        <ele>385.6259765625</ele>
        <time>2012-09-09T08:21:52Z</time>
      </trkpt>
      <trkpt lat="45.84449" lon="4.81237">
        <ele>383.22265625</ele>
        <time>2012-09-09T08:21:55Z</time>
      </trkpt>
      <trkpt lat="45.84449" lon="4.81248">
        <ele>380.81945800781</ele>
        <time>2012-09-09T08:21:56Z</time>
      </trkpt>
      <trkpt lat="45.84449" lon="4.81275">
        <ele>378.41613769531</ele>
        <time>2012-09-09T08:21:58Z</time>
      </trkpt>
      <trkpt lat="45.8445" lon="4.81301">
        <ele>375.53210449219</ele>
        <time>2012-09-09T08:22:00Z</time>
      </trkpt>
      <trkpt lat="45.84431" lon="4.81329">
        <ele>374.09008789062</ele>
        <time>2012-09-09T08:22:02Z</time>
      </trkpt>
      <trkpt lat="45.8442" lon="4.81365">
        <ele>372.16748046875</ele>
        <time>2012-09-09T08:22:05Z</time>
      </trkpt>
      <trkpt lat="45.84411" lon="4.81376">
        <ele>369.76428222656</ele>
        <time>2012-09-09T08:22:06Z</time>
      </trkpt>
      <trkpt lat="45.844" lon="4.81386">
        <ele>366.39953613281</ele>
        <time>2012-09-09T08:22:08Z</time>
      </trkpt>
      <trkpt lat="45.84393" lon="4.81397">
        <ele>366.39953613281</ele>
        <time>2012-09-09T08:22:09Z</time>
      </trkpt>
      <trkpt lat="45.84363" lon="4.81433">
        <ele>363.99633789062</ele>
        <time>2012-09-09T08:22:15Z</time>
      </trkpt>
      <trkpt lat="45.84368" lon="4.81465">
        <ele>362.55432128906</ele>
        <time>2012-09-09T08:22:19Z</time>
      </trkpt>
      <trkpt lat="45.84382" lon="4.81479">
        <ele>359.18969726562</ele>
        <time>2012-09-09T08:22:24Z</time>
      </trkpt>
      <trkpt lat="45.84375" lon="4.8149">
        <ele>357.74780273438</ele>
        <time>2012-09-09T08:22:26Z</time>
      </trkpt>
      <trkpt lat="45.84366" lon="4.81506">
        <ele>356.30578613281</ele>
        <time>2012-09-09T08:22:28Z</time>
      </trkpt>
      <trkpt lat="45.84358" lon="4.81522">
        <ele>353.90258789062</ele>
        <time>2012-09-09T08:22:30Z</time>
      </trkpt>
      <trkpt lat="45.8435" lon="4.81541">
        <ele>351.49914550781</ele>
        <time>2012-09-09T08:22:32Z</time>
      </trkpt>
      <trkpt lat="45.84344" lon="4.81556">
        <ele>347.65393066406</ele>
        <time>2012-09-09T08:22:34Z</time>
      </trkpt>
      <trkpt lat="45.84328" lon="4.81607">
        <ele>346.69262695312</ele>
        <time>2012-09-09T08:22:39Z</time>
      </trkpt>
      <trkpt lat="45.84317" lon="4.81641">
        <ele>342.36669921875</ele>
        <time>2012-09-09T08:22:42Z</time>
      </trkpt>
      <trkpt lat="45.84308" lon="4.81663">
        <ele>339.96337890625</ele>
        <time>2012-09-09T08:22:44Z</time>
      </trkpt>
      <trkpt lat="45.84295" lon="4.81683">
        <ele>338.521484375</ele>
        <time>2012-09-09T08:22:46Z</time>
      </trkpt>
      <trkpt lat="45.84279" lon="4.81714">
        <ele>334.19543457031</ele>
        <time>2012-09-09T08:22:49Z</time>
      </trkpt>
      <trkpt lat="45.8427" lon="4.81739">
        <ele>331.79211425781</ele>
        <time>2012-09-09T08:22:51Z</time>
      </trkpt>
      <trkpt lat="45.84267" lon="4.81749">
        <ele>331.3115234375</ele>
        <time>2012-09-09T08:22:52Z</time>
      </trkpt>
      <trkpt lat="45.8426" lon="4.81776">
        <ele>330.83093261719</ele>
        <time>2012-09-09T08:22:55Z</time>
      </trkpt>
      <trkpt lat="45.84253" lon="4.81807">
        <ele>329.38891601562</ele>
        <time>2012-09-09T08:22:58Z</time>
      </trkpt>
      <trkpt lat="45.84251" lon="4.81827">
        <ele>327.94677734375</ele>
        <time>2012-09-09T08:23:00Z</time>
      </trkpt>
      <trkpt lat="45.84251" lon="4.81846">
        <ele>325.06298828125</ele>
        <time>2012-09-09T08:23:02Z</time>
      </trkpt>
      <trkpt lat="45.84256" lon="4.81905">
        <ele>321.2177734375</ele>
        <time>2012-09-09T08:23:08Z</time>
      </trkpt>
      <trkpt lat="45.84256" lon="4.81913">
        <ele>321.2177734375</ele>
        <time>2012-09-09T08:23:09Z</time>
      </trkpt>
      <trkpt lat="45.84246" lon="4.81936">
        <ele>319.29504394531</ele>
        <time>2012-09-09T08:23:12Z</time>
      </trkpt>
      <trkpt lat="45.8424" lon="4.81943">
        <ele>317.37243652344</ele>
        <time>2012-09-09T08:23:13Z</time>
      </trkpt>
      <trkpt lat="45.84213" lon="4.81972">
        <ele>312.08520507812</ele>
        <time>2012-09-09T08:23:17Z</time>
      </trkpt>
      <trkpt lat="45.84198" lon="4.81988">
        <ele>309.201171875</ele>
        <time>2012-09-09T08:23:19Z</time>
      </trkpt>
      <trkpt lat="45.84189" lon="4.81997">
        <ele>305.83666992188</ele>
        <time>2012-09-09T08:23:20Z</time>
      </trkpt>
      <trkpt lat="45.84181" lon="4.82006">
        <ele>305.83666992188</ele>
        <time>2012-09-09T08:23:21Z</time>
      </trkpt>
      <trkpt lat="45.84165" lon="4.82025">
        <ele>304.39465332031</ele>
        <time>2012-09-09T08:23:23Z</time>
      </trkpt>
      <trkpt lat="45.84151" lon="4.82042">
        <ele>301.99133300781</ele>
        <time>2012-09-09T08:23:25Z</time>
      </trkpt>
      <trkpt lat="45.84127" lon="4.82058">
        <ele>301.51062011719</ele>
        <time>2012-09-09T08:23:29Z</time>
      </trkpt>
      <trkpt lat="45.84126" lon="4.82079">
        <ele>298.62670898438</ele>
        <time>2012-09-09T08:23:34Z</time>
      </trkpt>
      <trkpt lat="45.84133" lon="4.82083">
        <ele>298.62670898438</ele>
        <time>2012-09-09T08:23:35Z</time>
      </trkpt>
      <trkpt lat="45.84147" lon="4.82089">
        <ele>297.18469238281</ele>
        <time>2012-09-09T08:23:37Z</time>
      </trkpt>
      <trkpt lat="45.84163" lon="4.82097">
        <ele>291.8974609375</ele>
        <time>2012-09-09T08:23:39Z</time>
      </trkpt>
      <trkpt lat="45.84173" lon="4.821">
        <ele>291.8974609375</ele>
        <time>2012-09-09T08:23:40Z</time>
      </trkpt>
      <trkpt lat="45.8419" lon="4.82106">
        <ele>289.494140625</ele>
        <time>2012-09-09T08:23:42Z</time>
      </trkpt>
      <trkpt lat="45.84224" lon="4.82117">
        <ele>287.57141113281</ele>
        <time>2012-09-09T08:23:46Z</time>
      </trkpt>
      <trkpt lat="45.84248" lon="4.82114">
        <ele>285.64880371094</ele>
        <time>2012-09-09T08:23:49Z</time>
      </trkpt>
      <trkpt lat="45.84267" lon="4.8211">
        <ele>282.76501464844</ele>
        <time>2012-09-09T08:23:51Z</time>
      </trkpt>
      <trkpt lat="45.84283" lon="4.82103">
        <ele>281.32299804688</ele>
        <time>2012-09-09T08:23:53Z</time>
      </trkpt>
      <trkpt lat="45.84291" lon="4.82099">
        <ele>280.36169433594</ele>
        <time>2012-09-09T08:23:54Z</time>
      </trkpt>
      <trkpt lat="45.84306" lon="4.82087">
        <ele>277.47766113281</ele>
        <time>2012-09-09T08:23:56Z</time>
      </trkpt>
      <trkpt lat="45.8432" lon="4.82073">
        <ele>275.55505371094</ele>
        <time>2012-09-09T08:23:58Z</time>
      </trkpt>
      <trkpt lat="45.84334" lon="4.8206">
        <ele>274.11303710938</ele>
        <time>2012-09-09T08:24:00Z</time>
      </trkpt>
      <trkpt lat="45.84349" lon="4.82046">
        <ele>270.26770019531</ele>
        <time>2012-09-09T08:24:02Z</time>
      </trkpt>
      <trkpt lat="45.84356" lon="4.82039">
        <ele>270.26770019531</ele>
        <time>2012-09-09T08:24:03Z</time>
      </trkpt>
      <trkpt lat="45.8437" lon="4.82026">
        <ele>268.82580566406</ele>
        <time>2012-09-09T08:24:05Z</time>
      </trkpt>
      <trkpt lat="45.84383" lon="4.82013">
        <ele>267.38391113281</ele>
        <time>2012-09-09T08:24:07Z</time>
      </trkpt>
      <trkpt lat="45.84393" lon="4.81997">
        <ele>265.94189453125</ele>
        <time>2012-09-09T08:24:09Z</time>
      </trkpt>
      <trkpt lat="45.84398" lon="4.81985">
        <ele>266.42248535156</ele>
        <time>2012-09-09T08:24:11Z</time>
      </trkpt>
      <trkpt lat="45.84404" lon="4.81994">
        <ele>264.49987792969</ele>
        <time>2012-09-09T08:24:16Z</time>
      </trkpt>
      <trkpt lat="45.84404" lon="4.82035">
        <ele>262.09655761719</ele>
        <time>2012-09-09T08:24:21Z</time>
      </trkpt>
      <trkpt lat="45.84402" lon="4.82068">
        <ele>259.693359375</ele>
        <time>2012-09-09T08:24:24Z</time>
      </trkpt>
      <trkpt lat="45.84401" lon="4.8208">
        <ele>257.2900390625</ele>
        <time>2012-09-09T08:24:25Z</time>
      </trkpt>
      <trkpt lat="45.84391" lon="4.82115">
        <ele>253.92541503906</ele>
        <time>2012-09-09T08:24:28Z</time>
      </trkpt>
      <trkpt lat="45.84381" lon="4.82138">
        <ele>252.4833984375</ele>
        <time>2012-09-09T08:24:30Z</time>
      </trkpt>
      <trkpt lat="45.84356" lon="4.82211">
        <ele>248.63818359375</ele>
        <time>2012-09-09T08:24:36Z</time>
      </trkpt>
      <trkpt lat="45.84354" lon="4.82224">
        <ele>248.63818359375</ele>
        <time>2012-09-09T08:24:37Z</time>
      </trkpt>
      <trkpt lat="45.84346" lon="4.82289">
        <ele>247.19604492188</ele>
        <time>2012-09-09T08:24:42Z</time>
      </trkpt>
      <trkpt lat="45.84344" lon="4.82315">
        <ele>244.79284667969</ele>
        <time>2012-09-09T08:24:44Z</time>
      </trkpt>
      <trkpt lat="45.8431" lon="4.82362">
        <ele>243.35083007812</ele>
        <time>2012-09-09T08:24:50Z</time>
      </trkpt>
      <trkpt lat="45.8428" lon="4.82377">
        <ele>241.42822265625</ele>
        <time>2012-09-09T08:24:54Z</time>
      </trkpt>
      <trkpt lat="45.8418" lon="4.82408">
        <ele>238.54431152344</ele>
        <time>2012-09-09T08:25:07Z</time>
      </trkpt>
      <trkpt lat="45.84108" lon="4.82437">
        <ele>236.14099121094</ele>
        <time>2012-09-09T08:25:17Z</time>
      </trkpt>
      <trkpt lat="45.84068" lon="4.82451">
        <ele>233.25708007812</ele>
        <time>2012-09-09T08:25:22Z</time>
      </trkpt>
      <trkpt lat="45.8405" lon="4.82458">
        <ele>231.81494140625</ele>
        <time>2012-09-09T08:25:24Z</time>
      </trkpt>
      <trkpt lat="45.84" lon="4.82486">
        <ele>228.45043945312</ele>
        <time>2012-09-09T08:25:30Z</time>
      </trkpt>
      <trkpt lat="45.83991" lon="4.82518">
        <ele>228.93115234375</ele>
        <time>2012-09-09T08:25:36Z</time>
      </trkpt>
      <trkpt lat="45.83998" lon="4.82527">
        <ele>227.48913574219</ele>
        <time>2012-09-09T08:25:38Z</time>
      </trkpt>
      <trkpt lat="45.84011" lon="4.82537">
        <ele>226.04711914062</ele>
        <time>2012-09-09T08:25:40Z</time>
      </trkpt>
      <trkpt lat="45.84027" lon="4.82544">
        <ele>224.60522460938</ele>
        <time>2012-09-09T08:25:42Z</time>
      </trkpt>
      <trkpt lat="45.84054" lon="4.8255">
        <ele>219.79858398438</ele>
        <time>2012-09-09T08:25:45Z</time>
      </trkpt>
      <trkpt lat="45.84073" lon="4.82555">
        <ele>218.35656738281</ele>
        <time>2012-09-09T08:25:47Z</time>
      </trkpt>
      <trkpt lat="45.84091" lon="4.82559">
        <ele>216.91467285156</ele>
        <time>2012-09-09T08:25:49Z</time>
      </trkpt>
      <trkpt lat="45.841" lon="4.82559">
        <ele>215.95324707031</ele>
        <time>2012-09-09T08:25:50Z</time>
      </trkpt>
      <trkpt lat="45.84117" lon="4.82558">
        <ele>214.51123046875</ele>
        <time>2012-09-09T08:25:52Z</time>
      </trkpt>
      <trkpt lat="45.84133" lon="4.82553">
        <ele>213.0693359375</ele>
        <time>2012-09-09T08:25:54Z</time>
      </trkpt>
      <trkpt lat="45.84153" lon="4.82547">
        <ele>214.51123046875</ele>
        <time>2012-09-09T08:25:57Z</time>
      </trkpt>
      <trkpt lat="45.84166" lon="4.82561">
        <ele>214.03063964844</ele>
        <time>2012-09-09T08:26:01Z</time>
      </trkpt>
      <trkpt lat="45.84172" lon="4.82579">
        <ele>210.18542480469</ele>
        <time>2012-09-09T08:26:03Z</time>
      </trkpt>
      <trkpt lat="45.84175" lon="4.8259">
        <ele>207.30139160156</ele>
        <time>2012-09-09T08:26:04Z</time>
      </trkpt>
      <trkpt lat="45.84179" lon="4.82602">
        <ele>207.30139160156</ele>
        <time>2012-09-09T08:26:05Z</time>
      </trkpt>
      <trkpt lat="45.84187" lon="4.82626">
        <ele>202.01428222656</ele>
        <time>2012-09-09T08:26:07Z</time>
      </trkpt>
      <trkpt lat="45.8419" lon="4.82638">
        <ele>202.01428222656</ele>
        <time>2012-09-09T08:26:08Z</time>
      </trkpt>
      <trkpt lat="45.84198" lon="4.82668">
        <ele>202.01428222656</ele>
        <time>2012-09-09T08:26:12Z</time>
      </trkpt>
      <trkpt lat="45.84193" lon="4.82678">
        <ele>200.09167480469</ele>
        <time>2012-09-09T08:26:15Z</time>
      </trkpt>
      <trkpt lat="45.84189" lon="4.82681">
        <ele>198.64953613281</ele>
        <time>2012-09-09T08:26:16Z</time>
      </trkpt>
      <trkpt lat="45.84178" lon="4.82686">
        <ele>197.20751953125</ele>
        <time>2012-09-09T08:26:18Z</time>
      </trkpt>
      <trkpt lat="45.8415" lon="4.82696">
        <ele>195.28491210938</ele>
        <time>2012-09-09T08:26:22Z</time>
      </trkpt>
      <trkpt lat="45.84094" lon="4.82722">
        <ele>194.80432128906</ele>
        <time>2012-09-09T08:26:31Z</time>
      </trkpt>
      <trkpt lat="45.84066" lon="4.82733">
        <ele>194.80432128906</ele>
        <time>2012-09-09T08:26:39Z</time>
      </trkpt>
      <trkpt lat="45.84066" lon="4.82733">
        <ele>195.765625</ele>
        <time>2012-09-09T08:26:50Z</time>
      </trkpt>
      <trkpt lat="45.84058" lon="4.82734">
        <ele>194.80432128906</ele>
        <time>2012-09-09T08:26:56Z</time>
      </trkpt>
      <trkpt lat="45.84036" lon="4.8274">
        <ele>193.3623046875</ele>
        <time>2012-09-09T08:27:07Z</time>
      </trkpt>
      <trkpt lat="45.84022" lon="4.82746">
        <ele>192.88171386719</ele>
        <time>2012-09-09T08:27:17Z</time>
      </trkpt>
      <trkpt lat="45.84022" lon="4.82746">
        <ele>192.40112304688</ele>
        <time>2012-09-09T08:27:30Z</time>
      </trkpt>
      <trkpt lat="45.84022" lon="4.82746">
        <ele>192.40112304688</ele>
        <time>2012-09-09T08:27:41Z</time>
      </trkpt>
      <trkpt lat="45.84022" lon="4.82746">
        <ele>192.40112304688</ele>
        <time>2012-09-09T08:27:50Z</time>
      </trkpt>
      <trkpt lat="45.84022" lon="4.82746">
        <ele>191.92028808594</ele>
        <time>2012-09-09T08:29:22Z</time>
      </trkpt>
      <trkpt lat="45.84022" lon="4.82746">
        <ele>191.43957519531</ele>
        <time>2012-09-09T08:29:48Z</time>
      </trkpt>
      <trkpt lat="45.84022" lon="4.82746">
        <ele>189.99768066406</ele>
        <time>2012-09-09T08:38:44Z</time>
      </trkpt>
      <trkpt lat="45.84021" lon="4.82736">
        <ele>189.51696777344</ele>
        <time>2012-09-09T08:38:47Z</time>
      </trkpt>
      <trkpt lat="45.84021" lon="4.82736">
        <ele>189.03637695312</ele>
        <time>2012-09-09T08:39:09Z</time>
      </trkpt>
      <trkpt lat="45.84021" lon="4.82736">
        <ele>191.43957519531</ele>
        <time>2012-09-09T08:54:03Z</time>
      </trkpt>
      <trkpt lat="45.84031" lon="4.82829">
        <ele>190.958984375</ele>
        <time>2012-09-09T08:54:16Z</time>
      </trkpt>
      <trkpt lat="45.84026" lon="4.82831">
        <ele>189.99768066406</ele>
        <time>2012-09-09T08:56:28Z</time>
      </trkpt>
      <trkpt lat="45.84009" lon="4.82837">
        <ele>188.55578613281</ele>
        <time>2012-09-09T08:56:37Z</time>
      </trkpt>
      <trkpt lat="45.83981" lon="4.82803">
        <ele>184.22985839844</ele>
        <time>2012-09-09T08:56:45Z</time>
      </trkpt>
      <trkpt lat="45.83978" lon="4.82807">
        <ele>184.22985839844</ele>
        <time>2012-09-09T08:56:46Z</time>
      </trkpt>
      <trkpt lat="45.83972" lon="4.82815">
        <ele>182.78784179688</ele>
        <time>2012-09-09T08:56:48Z</time>
      </trkpt>
      <trkpt lat="45.83968" lon="4.82816">
        <ele>182.30712890625</ele>
        <time>2012-09-09T08:56:54Z</time>
      </trkpt>
      <trkpt lat="45.83964" lon="4.82816">
        <ele>181.82641601562</ele>
        <time>2012-09-09T08:56:58Z</time>
      </trkpt>
      <trkpt lat="45.83964" lon="4.82816">
        <ele>182.30712890625</ele>
        <time>2012-09-09T08:57:21Z</time>
      </trkpt>
      <trkpt lat="45.83964" lon="4.82816">
        <ele>182.30712890625</ele>
        <time>2012-09-09T08:57:29Z</time>
      </trkpt>
      <trkpt lat="45.83952" lon="4.82832">
        <ele>180.865234375</ele>
        <time>2012-09-09T08:57:36Z</time>
      </trkpt>
      <trkpt lat="45.83941" lon="4.82844">
        <ele>179.90380859375</ele>
        <time>2012-09-09T08:57:39Z</time>
      </trkpt>
      <trkpt lat="45.83931" lon="4.82848">
        <ele>178.94262695312</ele>
        <time>2012-09-09T08:57:41Z</time>
      </trkpt>
      <trkpt lat="45.83915" lon="4.82855">
        <ele>177.50061035156</ele>
        <time>2012-09-09T08:57:44Z</time>
      </trkpt>
      <trkpt lat="45.8389" lon="4.82867">
        <ele>177.02001953125</ele>
        <time>2012-09-09T08:57:49Z</time>
      </trkpt>
      <trkpt lat="45.83827" lon="4.8291">
        <ele>177.02001953125</ele>
        <time>2012-09-09T08:58:03Z</time>
      </trkpt>
      <trkpt lat="45.83801" lon="4.82936">
        <ele>179.90380859375</ele>
        <time>2012-09-09T08:58:12Z</time>
      </trkpt>
      <trkpt lat="45.83775" lon="4.82952">
        <ele>182.30712890625</ele>
        <time>2012-09-09T08:58:23Z</time>
      </trkpt>
      <trkpt lat="45.83756" lon="4.82932">
        <ele>184.71057128906</ele>
        <time>2012-09-09T08:58:33Z</time>
      </trkpt>
      <trkpt lat="45.8376" lon="4.82947">
        <ele>184.71057128906</ele>
        <time>2012-09-09T08:58:40Z</time>
      </trkpt>
      <trkpt lat="45.8376" lon="4.82951">
        <ele>184.22985839844</ele>
        <time>2012-09-09T08:58:43Z</time>
      </trkpt>
      <trkpt lat="45.83765" lon="4.82971">
        <ele>183.26843261719</ele>
        <time>2012-09-09T08:58:49Z</time>
      </trkpt>
      <trkpt lat="45.83767" lon="4.82981">
        <ele>182.30712890625</ele>
        <time>2012-09-09T08:58:51Z</time>
      </trkpt>
      <trkpt lat="45.83784" lon="4.82952">
        <ele>183.26843261719</ele>
        <time>2012-09-09T08:58:56Z</time>
      </trkpt>
      <trkpt lat="45.83788" lon="4.8295">
        <ele>182.30712890625</ele>
        <time>2012-09-09T08:58:58Z</time>
      </trkpt>
      <trkpt lat="45.83799" lon="4.82938">
        <ele>180.865234375</ele>
        <time>2012-09-09T08:59:01Z</time>
      </trkpt>
      <trkpt lat="45.83814" lon="4.82922">
        <ele>177.50061035156</ele>
        <time>2012-09-09T08:59:04Z</time>
      </trkpt>
      <trkpt lat="45.83838" lon="4.82901">
        <ele>176.53930664062</ele>
        <time>2012-09-09T08:59:08Z</time>
      </trkpt>
      <trkpt lat="45.8387" lon="4.82914">
        <ele>175.57788085938</ele>
        <time>2012-09-09T08:59:13Z</time>
      </trkpt>
      <trkpt lat="45.83874" lon="4.82928">
        <ele>175.57788085938</ele>
        <time>2012-09-09T08:59:15Z</time>
      </trkpt>
      <trkpt lat="45.83879" lon="4.82942">
        <ele>174.61657714844</ele>
        <time>2012-09-09T08:59:17Z</time>
      </trkpt>
      <trkpt lat="45.83884" lon="4.82959">
        <ele>174.61657714844</ele>
        <time>2012-09-09T08:59:19Z</time>
      </trkpt>
      <trkpt lat="45.83889" lon="4.82996">
        <ele>173.17468261719</ele>
        <time>2012-09-09T08:59:23Z</time>
      </trkpt>
      <trkpt lat="45.83895" lon="4.83078">
        <ele>173.6552734375</ele>
        <time>2012-09-09T08:59:32Z</time>
      </trkpt>
      <trkpt lat="45.83896" lon="4.83098">
        <ele>173.6552734375</ele>
        <time>2012-09-09T08:59:36Z</time>
      </trkpt>
      <trkpt lat="45.83881" lon="4.83111">
        <ele>173.17468261719</ele>
        <time>2012-09-09T08:59:41Z</time>
      </trkpt>
      <trkpt lat="45.83791" lon="4.8314">
        <ele>172.69396972656</ele>
        <time>2012-09-09T08:59:57Z</time>
      </trkpt>
      <trkpt lat="45.83695" lon="4.8321">
        <ele>173.6552734375</ele>
        <time>2012-09-09T09:00:15Z</time>
      </trkpt>
      <trkpt lat="45.83565" lon="4.83313">
        <ele>174.13586425781</ele>
        <time>2012-09-09T09:00:41Z</time>
      </trkpt>
      <trkpt lat="45.83495" lon="4.83405">
        <ele>173.6552734375</ele>
        <time>2012-09-09T09:00:58Z</time>
      </trkpt>
      <trkpt lat="45.83425" lon="4.83568">
        <ele>174.13586425781</ele>
        <time>2012-09-09T09:01:20Z</time>
      </trkpt>
      <trkpt lat="45.83407" lon="4.8362">
        <ele>174.61657714844</ele>
        <time>2012-09-09T09:01:26Z</time>
      </trkpt>
      <trkpt lat="45.83344" lon="4.83831">
        <ele>175.09729003906</ele>
        <time>2012-09-09T09:01:50Z</time>
      </trkpt>
      <trkpt lat="45.83315" lon="4.83945">
        <ele>171.73266601562</ele>
        <time>2012-09-09T09:02:02Z</time>
      </trkpt>
      <trkpt lat="45.83257" lon="4.842">
        <ele>170.77136230469</ele>
        <time>2012-09-09T09:02:28Z</time>
      </trkpt>
      <trkpt lat="45.8322" lon="4.84357">
        <ele>170.77136230469</ele>
        <time>2012-09-09T09:02:46Z</time>
      </trkpt>
      <trkpt lat="45.83213" lon="4.84382">
        <ele>168.84875488281</ele>
        <time>2012-09-09T09:02:49Z</time>
      </trkpt>
      <trkpt lat="45.83178" lon="4.84555">
        <ele>171.73266601562</ele>
        <time>2012-09-09T09:03:10Z</time>
      </trkpt>
      <trkpt lat="45.83124" lon="4.84686">
        <ele>172.69396972656</ele>
        <time>2012-09-09T09:03:30Z</time>
      </trkpt>
      <trkpt lat="45.83114" lon="4.84705">
        <ele>172.69396972656</ele>
        <time>2012-09-09T09:03:33Z</time>
      </trkpt>
      <trkpt lat="45.83087" lon="4.84712">
        <ele>173.6552734375</ele>
        <time>2012-09-09T09:03:37Z</time>
      </trkpt>
      <trkpt lat="45.8308" lon="4.8475">
        <ele>172.69396972656</ele>
        <time>2012-09-09T09:03:43Z</time>
      </trkpt>
      <trkpt lat="45.83044" lon="4.84821">
        <ele>169.81005859375</ele>
        <time>2012-09-09T09:03:52Z</time>
      </trkpt>
      <trkpt lat="45.83013" lon="4.84879">
        <ele>167.88732910156</ele>
        <time>2012-09-09T09:03:59Z</time>
      </trkpt>
      <trkpt lat="45.82917" lon="4.8502">
        <ele>170.29064941406</ele>
        <time>2012-09-09T09:04:19Z</time>
      </trkpt>
      <trkpt lat="45.82896" lon="4.85043">
        <ele>170.29064941406</ele>
        <time>2012-09-09T09:04:23Z</time>
      </trkpt>
      <trkpt lat="45.82866" lon="4.85077">
        <ele>168.84875488281</ele>
        <time>2012-09-09T09:04:29Z</time>
      </trkpt>
      <trkpt lat="45.82755" lon="4.85178">
        <ele>169.81005859375</ele>
        <time>2012-09-09T09:04:49Z</time>
      </trkpt>
      <trkpt lat="45.82635" lon="4.85264">
        <ele>168.84875488281</ele>
        <time>2012-09-09T09:05:10Z</time>
      </trkpt>
      <trkpt lat="45.82557" lon="4.85318">
        <ele>169.32946777344</ele>
        <time>2012-09-09T09:05:25Z</time>
      </trkpt>
      <trkpt lat="45.82467" lon="4.85378">
        <ele>171.25207519531</ele>
        <time>2012-09-09T09:05:43Z</time>
      </trkpt>
      <trkpt lat="45.82431" lon="4.85398">
        <ele>170.77136230469</ele>
        <time>2012-09-09T09:05:50Z</time>
      </trkpt>
      <trkpt lat="45.82349" lon="4.85436">
        <ele>170.29064941406</ele>
        <time>2012-09-09T09:06:04Z</time>
      </trkpt>
      <trkpt lat="45.82239" lon="4.8547">
        <ele>168.36804199219</ele>
        <time>2012-09-09T09:06:22Z</time>
      </trkpt>
      <trkpt lat="45.8213" lon="4.85482">
        <ele>168.36804199219</ele>
        <time>2012-09-09T09:06:39Z</time>
      </trkpt>
      <trkpt lat="45.82036" lon="4.85471">
        <ele>168.84875488281</ele>
        <time>2012-09-09T09:06:54Z</time>
      </trkpt>
      <trkpt lat="45.81907" lon="4.85426">
        <ele>167.88732910156</ele>
        <time>2012-09-09T09:07:15Z</time>
      </trkpt>
      <trkpt lat="45.81902" lon="4.85423">
        <ele>167.88732910156</ele>
        <time>2012-09-09T09:07:16Z</time>
      </trkpt>
      <trkpt lat="45.81791" lon="4.85327">
        <ele>168.36804199219</ele>
        <time>2012-09-09T09:07:36Z</time>
      </trkpt>
      <trkpt lat="45.81698" lon="4.85173">
        <ele>167.88732910156</ele>
        <time>2012-09-09T09:07:58Z</time>
      </trkpt>
      <trkpt lat="45.81613" lon="4.84965">
        <ele>168.36804199219</ele>
        <time>2012-09-09T09:08:25Z</time>
      </trkpt>
      <trkpt lat="45.8154" lon="4.84778">
        <ele>168.84875488281</ele>
        <time>2012-09-09T09:08:49Z</time>
      </trkpt>
      <trkpt lat="45.8153" lon="4.84747">
        <ele>169.32946777344</ele>
        <time>2012-09-09T09:08:53Z</time>
      </trkpt>
      <trkpt lat="45.81522" lon="4.8471">
        <ele>169.81005859375</ele>
        <time>2012-09-09T09:08:58Z</time>
      </trkpt>
      <trkpt lat="45.81494" lon="4.84638">
        <ele>173.17468261719</ele>
        <time>2012-09-09T09:09:12Z</time>
      </trkpt>
      <trkpt lat="45.81484" lon="4.84621">
        <ele>172.69396972656</ele>
        <time>2012-09-09T09:09:16Z</time>
      </trkpt>
      <trkpt lat="45.81452" lon="4.84575">
        <ele>169.81005859375</ele>
        <time>2012-09-09T09:09:24Z</time>
      </trkpt>
      <trkpt lat="45.81428" lon="4.84546">
        <ele>168.36804199219</ele>
        <time>2012-09-09T09:09:28Z</time>
      </trkpt>
      <trkpt lat="45.81321" lon="4.84417">
        <ele>166.92602539062</ele>
        <time>2012-09-09T09:09:45Z</time>
      </trkpt>
      <trkpt lat="45.81229" lon="4.84313">
        <ele>167.88732910156</ele>
        <time>2012-09-09T09:10:02Z</time>
      </trkpt>
      <trkpt lat="45.81098" lon="4.84229">
        <ele>168.36804199219</ele>
        <time>2012-09-09T09:10:25Z</time>
      </trkpt>
      <trkpt lat="45.80968" lon="4.84194">
        <ele>168.36804199219</ele>
        <time>2012-09-09T09:10:46Z</time>
      </trkpt>
      <trkpt lat="45.80832" lon="4.84188">
        <ele>167.88732910156</ele>
        <time>2012-09-09T09:11:08Z</time>
      </trkpt>
      <trkpt lat="45.80678" lon="4.84153">
        <ele>167.40673828125</ele>
        <time>2012-09-09T09:11:32Z</time>
      </trkpt>
      <trkpt lat="45.8054" lon="4.84084">
        <ele>166.92602539062</ele>
        <time>2012-09-09T09:11:55Z</time>
      </trkpt>
      <trkpt lat="45.80497" lon="4.84061">
        <ele>169.32946777344</ele>
        <time>2012-09-09T09:12:04Z</time>
      </trkpt>
      <trkpt lat="45.80439" lon="4.8403">
        <ele>172.69396972656</ele>
        <time>2012-09-09T09:12:20Z</time>
      </trkpt>
      <trkpt lat="45.80401" lon="4.84003">
        <ele>174.61657714844</ele>
        <time>2012-09-09T09:12:32Z</time>
      </trkpt>
      <trkpt lat="45.80355" lon="4.83962">
        <ele>177.50061035156</ele>
        <time>2012-09-09T09:12:47Z</time>
      </trkpt>
      <trkpt lat="45.80302" lon="4.83906">
        <ele>177.98120117188</ele>
        <time>2012-09-09T09:13:02Z</time>
      </trkpt>
      <trkpt lat="45.80283" lon="4.83886">
        <ele>177.98120117188</ele>
        <time>2012-09-09T09:13:06Z</time>
      </trkpt>
      <trkpt lat="45.80265" lon="4.83891">
        <ele>176.05859375</ele>
        <time>2012-09-09T09:13:10Z</time>
      </trkpt>
      <trkpt lat="45.80251" lon="4.83886">
        <ele>175.57788085938</ele>
        <time>2012-09-09T09:13:12Z</time>
      </trkpt>
      <trkpt lat="45.80241" lon="4.83839">
        <ele>175.09729003906</ele>
        <time>2012-09-09T09:13:15Z</time>
      </trkpt>
      <trkpt lat="45.80223" lon="4.83832">
        <ele>174.13586425781</ele>
        <time>2012-09-09T09:13:18Z</time>
      </trkpt>
      <trkpt lat="45.80173" lon="4.83834">
        <ele>172.69396972656</ele>
        <time>2012-09-09T09:13:25Z</time>
      </trkpt>
      <trkpt lat="45.80142" lon="4.83828">
        <ele>170.77136230469</ele>
        <time>2012-09-09T09:13:29Z</time>
      </trkpt>
      <trkpt lat="45.80126" lon="4.83819">
        <ele>169.81005859375</ele>
        <time>2012-09-09T09:13:31Z</time>
      </trkpt>
      <trkpt lat="45.80038" lon="4.83705">
        <ele>168.36804199219</ele>
        <time>2012-09-09T09:13:46Z</time>
      </trkpt>
      <trkpt lat="45.80012" lon="4.8366">
        <ele>166.92602539062</ele>
        <time>2012-09-09T09:13:51Z</time>
      </trkpt>
      <trkpt lat="45.79994" lon="4.83622">
        <ele>165.96472167969</ele>
        <time>2012-09-09T09:13:55Z</time>
      </trkpt>
      <trkpt lat="45.79941" lon="4.83466">
        <ele>166.92602539062</ele>
        <time>2012-09-09T09:14:12Z</time>
      </trkpt>
      <trkpt lat="45.7989" lon="4.83294">
        <ele>167.40673828125</ele>
        <time>2012-09-09T09:14:33Z</time>
      </trkpt>
      <trkpt lat="45.79864" lon="4.83205">
        <ele>166.4453125</ele>
        <time>2012-09-09T09:14:44Z</time>
      </trkpt>
      <trkpt lat="45.7982" lon="4.83101">
        <ele>167.88732910156</ele>
        <time>2012-09-09T09:14:59Z</time>
      </trkpt>
      <trkpt lat="45.79802" lon="4.83057">
        <ele>170.29064941406</ele>
        <time>2012-09-09T09:15:07Z</time>
      </trkpt>
      <trkpt lat="45.79797" lon="4.83044">
        <ele>169.81005859375</ele>
        <time>2012-09-09T09:15:12Z</time>
      </trkpt>
      <trkpt lat="45.79794" lon="4.83015">
        <ele>170.29064941406</ele>
        <time>2012-09-09T09:15:14Z</time>
      </trkpt>
      <trkpt lat="45.7979" lon="4.83003">
        <ele>169.81005859375</ele>
        <time>2012-09-09T09:15:16Z</time>
      </trkpt>
      <trkpt lat="45.79769" lon="4.82976">
        <ele>167.40673828125</ele>
        <time>2012-09-09T09:15:23Z</time>
      </trkpt>
      <trkpt lat="45.79741" lon="4.82925">
        <ele>165.96472167969</ele>
        <time>2012-09-09T09:15:29Z</time>
      </trkpt>
      <trkpt lat="45.79665" lon="4.82781">
        <ele>165.96472167969</ele>
        <time>2012-09-09T09:15:49Z</time>
      </trkpt>
      <trkpt lat="45.79593" lon="4.82636">
        <ele>167.40673828125</ele>
        <time>2012-09-09T09:16:11Z</time>
      </trkpt>
      <trkpt lat="45.7952" lon="4.825">
        <ele>167.40673828125</ele>
        <time>2012-09-09T09:16:31Z</time>
      </trkpt>
      <trkpt lat="45.79464" lon="4.82395">
        <ele>167.40673828125</ele>
        <time>2012-09-09T09:16:46Z</time>
      </trkpt>
      <trkpt lat="45.79393" lon="4.8227">
        <ele>166.4453125</ele>
        <time>2012-09-09T09:17:04Z</time>
      </trkpt>
      <trkpt lat="45.79308" lon="4.82141">
        <ele>166.92602539062</ele>
        <time>2012-09-09T09:17:25Z</time>
      </trkpt>
      <trkpt lat="45.79285" lon="4.82113">
        <ele>166.4453125</ele>
        <time>2012-09-09T09:17:30Z</time>
      </trkpt>
      <trkpt lat="45.792" lon="4.82009">
        <ele>166.92602539062</ele>
        <time>2012-09-09T09:17:48Z</time>
      </trkpt>
      <trkpt lat="45.79164" lon="4.81964">
        <ele>166.4453125</ele>
        <time>2012-09-09T09:17:56Z</time>
      </trkpt>
      <trkpt lat="45.79122" lon="4.81911">
        <ele>166.4453125</ele>
        <time>2012-09-09T09:18:06Z</time>
      </trkpt>
      <trkpt lat="45.79111" lon="4.81896">
        <ele>166.4453125</ele>
        <time>2012-09-09T09:18:09Z</time>
      </trkpt>
      <trkpt lat="45.79081" lon="4.81856">
        <ele>166.92602539062</ele>
        <time>2012-09-09T09:18:16Z</time>
      </trkpt>
      <trkpt lat="45.79051" lon="4.81814">
        <ele>165.96472167969</ele>
        <time>2012-09-09T09:18:24Z</time>
      </trkpt>
      <trkpt lat="45.78995" lon="4.81727">
        <ele>165.96472167969</ele>
        <time>2012-09-09T09:18:39Z</time>
      </trkpt>
      <trkpt lat="45.78917" lon="4.8162">
        <ele>165.96472167969</ele>
        <time>2012-09-09T09:18:59Z</time>
      </trkpt>
      <trkpt lat="45.78882" lon="4.81576">
        <ele>166.92602539062</ele>
        <time>2012-09-09T09:19:08Z</time>
      </trkpt>
      <trkpt lat="45.7882" lon="4.81514">
        <ele>167.88732910156</ele>
        <time>2012-09-09T09:19:23Z</time>
      </trkpt>
      <trkpt lat="45.78726" lon="4.81438">
        <ele>166.4453125</ele>
        <time>2012-09-09T09:19:43Z</time>
      </trkpt>
      <trkpt lat="45.78686" lon="4.8141">
        <ele>167.40673828125</ele>
        <time>2012-09-09T09:19:52Z</time>
      </trkpt>
      <trkpt lat="45.78597" lon="4.81355">
        <ele>166.4453125</ele>
        <time>2012-09-09T09:20:11Z</time>
      </trkpt>
      <trkpt lat="45.78522" lon="4.81302">
        <ele>166.92602539062</ele>
        <time>2012-09-09T09:20:28Z</time>
      </trkpt>
      <trkpt lat="45.78439" lon="4.81234">
        <ele>167.40673828125</ele>
        <time>2012-09-09T09:20:48Z</time>
      </trkpt>
      <trkpt lat="45.78382" lon="4.81187">
        <ele>166.92602539062</ele>
        <time>2012-09-09T09:21:01Z</time>
      </trkpt>
      <trkpt lat="45.78337" lon="4.81152">
        <ele>167.40673828125</ele>
        <time>2012-09-09T09:21:12Z</time>
      </trkpt>
      <trkpt lat="45.78285" lon="4.81109">
        <ele>168.36804199219</ele>
        <time>2012-09-09T09:21:23Z</time>
      </trkpt>
      <trkpt lat="45.78277" lon="4.81102">
        <ele>167.88732910156</ele>
        <time>2012-09-09T09:21:25Z</time>
      </trkpt>
      <trkpt lat="45.7827" lon="4.81059">
        <ele>168.36804199219</ele>
        <time>2012-09-09T09:21:31Z</time>
      </trkpt>
      <trkpt lat="45.78287" lon="4.8102">
        <ele>168.84875488281</ele>
        <time>2012-09-09T09:21:37Z</time>
      </trkpt>
      <trkpt lat="45.78296" lon="4.80993">
        <ele>168.36804199219</ele>
        <time>2012-09-09T09:21:41Z</time>
      </trkpt>
      <trkpt lat="45.78299" lon="4.80883">
        <ele>168.36804199219</ele>
        <time>2012-09-09T09:21:55Z</time>
      </trkpt>
      <trkpt lat="45.78299" lon="4.80875">
        <ele>168.36804199219</ele>
        <time>2012-09-09T09:21:56Z</time>
      </trkpt>
      <trkpt lat="45.78303" lon="4.8086">
        <ele>168.36804199219</ele>
        <time>2012-09-09T09:21:58Z</time>
      </trkpt>
      <trkpt lat="45.78321" lon="4.80793">
        <ele>169.32946777344</ele>
        <time>2012-09-09T09:22:11Z</time>
      </trkpt>
      <trkpt lat="45.78324" lon="4.80778">
        <ele>169.32946777344</ele>
        <time>2012-09-09T09:22:26Z</time>
      </trkpt>
      <trkpt lat="45.78325" lon="4.80775">
        <ele>168.84875488281</ele>
        <time>2012-09-09T09:22:27Z</time>
      </trkpt>
      <trkpt lat="45.78312" lon="4.8076">
        <ele>167.88732910156</ele>
        <time>2012-09-09T09:22:32Z</time>
      </trkpt>
      <trkpt lat="45.78262" lon="4.80732">
        <ele>167.40673828125</ele>
        <time>2012-09-09T09:22:42Z</time>
      </trkpt>
      <trkpt lat="45.7824" lon="4.80723">
        <ele>167.40673828125</ele>
        <time>2012-09-09T09:22:46Z</time>
      </trkpt>
      <trkpt lat="45.78123" lon="4.80632">
        <ele>167.40673828125</ele>
        <time>2012-09-09T09:23:09Z</time>
      </trkpt>
      <trkpt lat="45.78048" lon="4.80557">
        <ele>166.4453125</ele>
        <time>2012-09-09T09:23:25Z</time>
      </trkpt>
      <trkpt lat="45.78031" lon="4.80536">
        <ele>166.92602539062</ele>
        <time>2012-09-09T09:23:29Z</time>
      </trkpt>
      <trkpt lat="45.77972" lon="4.8043">
        <ele>168.36804199219</ele>
        <time>2012-09-09T09:23:47Z</time>
      </trkpt>
      <trkpt lat="45.77932" lon="4.80322">
        <ele>167.88732910156</ele>
        <time>2012-09-09T09:24:03Z</time>
      </trkpt>
      <trkpt lat="45.77915" lon="4.80302">
        <ele>167.88732910156</ele>
        <time>2012-09-09T09:24:07Z</time>
      </trkpt>
      <trkpt lat="45.77864" lon="4.80262">
        <ele>167.40673828125</ele>
        <time>2012-09-09T09:24:18Z</time>
      </trkpt>
      <trkpt lat="45.77843" lon="4.80261">
        <ele>168.36804199219</ele>
        <time>2012-09-09T09:24:23Z</time>
      </trkpt>
      <trkpt lat="45.77786" lon="4.80312">
        <ele>167.88732910156</ele>
        <time>2012-09-09T09:24:36Z</time>
      </trkpt>
      <trkpt lat="45.77755" lon="4.80339">
        <ele>168.36804199219</ele>
        <time>2012-09-09T09:24:46Z</time>
      </trkpt>
      <trkpt lat="45.77751" lon="4.80342">
        <ele>168.84875488281</ele>
        <time>2012-09-09T09:24:50Z</time>
      </trkpt>
      <trkpt lat="45.77737" lon="4.80355">
        <ele>167.88732910156</ele>
        <time>2012-09-09T09:24:55Z</time>
      </trkpt>
      <trkpt lat="45.77689" lon="4.80399">
        <ele>168.36804199219</ele>
        <time>2012-09-09T09:25:06Z</time>
      </trkpt>
      <trkpt lat="45.77672" lon="4.80413">
        <ele>166.92602539062</ele>
        <time>2012-09-09T09:25:10Z</time>
      </trkpt>
      <trkpt lat="45.77607" lon="4.80469">
        <ele>167.88732910156</ele>
        <time>2012-09-09T09:25:24Z</time>
      </trkpt>
      <trkpt lat="45.77589" lon="4.80484">
        <ele>167.40673828125</ele>
        <time>2012-09-09T09:25:28Z</time>
      </trkpt>
      <trkpt lat="45.77576" lon="4.80495">
        <ele>166.4453125</ele>
        <time>2012-09-09T09:25:31Z</time>
      </trkpt>
      <trkpt lat="45.77549" lon="4.8052">
        <ele>165.96472167969</ele>
        <time>2012-09-09T09:25:37Z</time>
      </trkpt>
      <trkpt lat="45.77514" lon="4.8054">
        <ele>166.4453125</ele>
        <time>2012-09-09T09:25:43Z</time>
      </trkpt>
      <trkpt lat="45.77458" lon="4.80539">
        <ele>167.40673828125</ele>
        <time>2012-09-09T09:25:55Z</time>
      </trkpt>
      <trkpt lat="45.77371" lon="4.80537">
        <ele>167.40673828125</ele>
        <time>2012-09-09T09:26:12Z</time>
      </trkpt>
      <trkpt lat="45.77362" lon="4.80538">
        <ele>166.92602539062</ele>
        <time>2012-09-09T09:26:14Z</time>
      </trkpt>
      <trkpt lat="45.77294" lon="4.80542">
        <ele>167.40673828125</ele>
        <time>2012-09-09T09:26:27Z</time>
      </trkpt>
      <trkpt lat="45.77267" lon="4.80542">
        <ele>167.40673828125</ele>
        <time>2012-09-09T09:26:34Z</time>
      </trkpt>
      <trkpt lat="45.77242" lon="4.80542">
        <ele>167.88732910156</ele>
        <time>2012-09-09T09:26:39Z</time>
      </trkpt>
      <trkpt lat="45.77212" lon="4.80499">
        <ele>168.36804199219</ele>
        <time>2012-09-09T09:26:48Z</time>
      </trkpt>
      <trkpt lat="45.77175" lon="4.80421">
        <ele>168.84875488281</ele>
        <time>2012-09-09T09:27:01Z</time>
      </trkpt>
      <trkpt lat="45.77128" lon="4.80316">
        <ele>170.29064941406</ele>
        <time>2012-09-09T09:27:19Z</time>
      </trkpt>
      <trkpt lat="45.77101" lon="4.80256">
        <ele>168.36804199219</ele>
        <time>2012-09-09T09:27:28Z</time>
      </trkpt>
      <trkpt lat="45.77098" lon="4.80234">
        <ele>169.81005859375</ele>
        <time>2012-09-09T09:27:31Z</time>
      </trkpt>
      <trkpt lat="45.77105" lon="4.80228">
        <ele>170.29064941406</ele>
        <time>2012-09-09T09:27:33Z</time>
      </trkpt>
      <trkpt lat="45.77148" lon="4.80197">
        <ele>170.29064941406</ele>
        <time>2012-09-09T09:27:44Z</time>
      </trkpt>
      <trkpt lat="45.7715" lon="4.80196">
        <ele>169.81005859375</ele>
        <time>2012-09-09T09:27:55Z</time>
      </trkpt>
    </trkseg>
  </trk>
</gpx>